Data Archive--August, 2003

Date
Time
Heat Index
Current Temp
Wind Chill
High Temp
Low Temp
Humidity
Dew Point
Wind Speed
Gust
Wind Direction
Rain
Barometer
08/05/2003 11:30 p 70.0 68.3 68.3 68.4 68.3 100 68.3 0.0 0.0 --- 0.00 29.692
08/06/2003 12:00 a 70.0 68.1 68.1 68.3 68.0 100 68.1 0.0 0.0 --- 0.00 29.697
08/06/2003 12:30 a 70.0 68.1 68.1 68.3 68.0 100 68.1 0.0 0.0 --- 0.00 29.711
08/06/2003 1:00 a 72.0 68.5 68.5 68.8 68.3 100 68.5 0.0 0.0 --- 0.00 29.698
08/06/2003 1:30 a 72.0 69.1 69.1 69.3 68.8 100 69.1 0.0 0.0 --- 0.00 29.693
08/06/2003 2:00 a 72.0 69.4 69.4 69.6 69.3 100 69.4 0.0 0.0 --- 0.00 29.683
08/06/2003 2:30 a 74.0 69.6 69.6 69.7 69.5 100 69.6 0.0 0.0 --- 0.00 29.690
08/06/2003 3:00 a 74.0 69.7 69.7 69.7 69.6 100 69.7 0.0 0.0 --- 0.00 29.677
08/06/2003 3:30 a 74.0 69.7 69.7 69.8 69.6 100 69.7 0.0 0.0 --- 0.00 29.680
08/06/2003 4:00 a 74.0 69.9 69.9 70.0 69.7 100 69.9 0.0 0.0 --- 0.00 29.684
08/06/2003 4:30 a 74.0 70.2 70.2 70.5 69.9 100 70.2 0.0 0.0 --- 0.02 29.694
08/06/2003 5:00 a 74.0 70.1 70.1 70.5 69.8 100 70.1 0.0 0.0 --- 0.00 29.701
08/06/2003 5:30 a 74.0 69.5 69.5 69.8 69.1 100 69.5 0.0 1.0 NNW 0.00 29.688
08/06/2003 6:00 a 70.0 68.1 68.1 69.1 67.5 100 68.1 0.0 0.0 --- 0.00 29.690
08/06/2003 6:30 a 67.1 67.1 67.1 67.5 66.7 100 67.1 0.0 0.0 --- 0.00 29.689
08/06/2003 7:00 a 67.1 67.1 67.1 67.3 66.7 100 67.1 0.0 0.0 --- 0.00 29.701
08/06/2003 7:30 a 67.5 67.5 67.5 67.6 67.3 100 67.5 0.0 0.0 --- 0.00 29.710
08/06/2003 8:00 a 70.0 68.1 68.1 68.6 67.6 100 68.1 0.0 0.0 --- 0.00 29.720
08/06/2003 8:30 a 72.0 68.7 68.7 68.8 68.4 100 68.7 0.0 0.0 --- 0.00 29.733
08/06/2003 9:00 a 72.0 69.0 69.0 70.1 68.5 100 69.0 0.0 0.0 --- 0.00 29.738
08/06/2003 9:30 a 75.0 70.9 70.9 71.9 70.1 100 70.9 0.0 1.0 --- 0.00 29.740
08/06/2003 10:00 a 76.0 72.1 72.1 72.5 71.8 100 72.1 0.0 1.0 NNW 0.00 29.749
08/06/2003 10:30 a 77.0 73.2 73.2 74.6 72.1 100 73.2 0.0 2.0 NNW 0.00 29.752
08/06/2003 11:00 a 80.0 75.8 75.8 77.1 74.6 100 75.8 0.0 2.0 NNW 0.00 29.752
08/06/2003 11:30 a 82.0 77.0 77.0 77.5 75.8 100 77.0 0.0 1.0 NNW 0.00 29.747
08/06/2003 12:00 p 82.0 77.4 77.4 78.8 76.6 100 77.4 0.0 2.0 NNW 0.00 29.744
08/06/2003 12:30 p 87.0 79.2 79.2 80.1 78.4 100 79.2 0.0 2.0 NNW 0.00 29.738
08/06/2003 1:00 p 96.0 82.1 82.1 87.1 79.1 100 82.1 0.0 3.0 SW 0.00 29.731
08/06/2003 1:30 p 131.0 87.5 87.5 88.7 85.9 100 87.5 0.0 2.0 SW 0.01 29.728
08/06/2003 2:00 p 131.0 87.6 87.6 89.6 82.7 100 87.6 0.0 4.0 NNW 0.00 29.725
08/06/2003 2:30 p 82.0 77.1 77.1 82.7 73.3 100 77.1 0.0 2.0 N 0.08 29.733
08/06/2003 3:00 p 82.0 77.2 77.2 81.7 73.3 100 77.2 0.0 1.0 --- 0.00 29.729
08/06/2003 3:30 p 84.0 78.0 78.0 81.8 75.8 100 78.0 0.0 0.0 --- 0.00 29.721
08/06/2003 4:00 p 82.0 76.5 76.5 77.7 76.2 100 76.5 0.0 0.0 --- 0.00 29.706
08/06/2003 4:30 p 87.0 78.9 78.9 79.4 77.7 100 78.9 0.0 0.0 --- 0.00 29.698
08/06/2003 5:00 p 86.8 79.2 79.2 79.7 78.0 99 78.9 0.0 2.0 NNW 0.00 29.694
08/06/2003 5:30 p 83.6 77.9 77.9 78.3 77.3 96 76.7 0.0 0.0 --- 0.00 29.693
08/06/2003 6:00 p 81.6 76.8 76.8 77.9 75.4 96 75.6 0.0 1.0 --- 0.00 29.689
08/06/2003 6:30 p 78.6 75.2 75.2 75.5 75.0 96 74.0 0.0 1.0 --- 0.00 29.693
08/06/2003 7:00 p 77.0 74.4 74.4 75.0 74.0 95 72.9 0.0 0.0 --- 0.00 29.699
08/06/2003 7:30 p 77.0 73.6 73.6 74.0 73.2 95 72.1 0.0 0.0 --- 0.00 29.707
08/06/2003 8:00 p 76.0 72.7 72.7 73.2 72.3 95 71.2 0.0 0.0 --- 0.00 29.716
08/06/2003 8:30 p 74.8 72.1 72.1 72.3 71.8 94 70.3 0.0 0.0 --- 0.00 29.713
08/06/2003 9:00 p 75.0 71.5 71.5 71.8 71.2 95 70.0 0.0 0.0 --- 0.00 29.717
08/06/2003 9:30 p 74.2 70.9 70.9 71.2 70.5 96 69.7 0.0 0.0 --- 0.00 29.726
08/06/2003 10:00 p 73.4 70.2 70.2 70.5 70.0 97 69.3 0.0 0.0 --- 0.00 29.728
08/06/2003 10:30 p 73.4 69.9 69.9 70.1 69.8 97 69.0 0.0 0.0 --- 0.00 29.725
08/06/2003 11:00 p 73.4 69.6 69.6 69.8 69.4 97 68.7 0.0 0.0 --- 0.00 29.724
08/06/2003 11:30 p 71.8 69.2 69.2 69.4 69.1 98 68.6 0.0 0.0 --- 0.00 29.721
08/07/2003 12:00 a 71.8 69.0 69.0 69.1 68.7 98 68.4 0.0 0.0 --- 0.00 29.724
08/07/2003 12:30 a 71.8 68.6 68.6 68.7 68.4 98 68.0 0.0 0.0 --- 0.00 29.728
08/07/2003 1:00 a 71.8 68.5 68.5 68.7 68.4 98 67.9 0.0 0.0 --- 0.00 29.724
08/07/2003 1:30 a 71.8 68.6 68.6 68.6 68.4 98 68.0 0.0 0.0 --- 0.00 29.730
08/07/2003 2:00 a 70.0 68.3 68.3 68.4 68.0 98 67.7 0.0 0.0 --- 0.00 29.727
08/07/2003 2:30 a 67.9 67.9 67.9 68.1 67.7 98 67.3 0.0 0.0 --- 0.00 29.725
08/07/2003 3:00 a 67.5 67.5 67.5 67.7 67.3 98 66.9 0.0 0.0 --- 0.00 29.719
08/07/2003 3:30 a 67.5 67.5 67.5 67.8 67.3 98 66.9 0.0 0.0 --- 0.00 29.721
08/07/2003 4:00 a 70.0 68.0 68.0 68.3 67.8 98 67.4 0.0 0.0 --- 0.00 29.722
08/07/2003 4:30 a 71.8 68.6 68.6 68.8 68.3 98 68.0 0.0 0.0 --- 0.00 29.719
08/07/2003 5:00 a 71.9 69.0 69.0 69.4 68.8 99 68.7 0.0 0.0 --- 0.00 29.720
08/07/2003 5:30 a 73.8 69.5 69.5 69.6 69.4 99 69.2 0.0 0.0 --- 0.00 29.727
08/07/2003 6:00 a 73.8 69.8 69.8 69.9 69.6 99 69.5 0.0 0.0 --- 0.00 29.732
08/07/2003 6:30 a 73.8 70.0 70.0 70.1 69.9 99 69.7 0.0 0.0 --- 0.00 29.738
08/07/2003 7:00 a 73.8 70.1 70.1 70.2 70.1 99 69.8 0.0 0.0 --- 0.00 29.747
08/07/2003 7:30 a 73.8 70.3 70.3 70.4 70.2 99 70.0 0.0 0.0 --- 0.00 29.756
08/07/2003 8:00 a 74.8 70.6 70.6 70.9 70.3 99 70.3 0.0 0.0 --- 0.00 29.758
08/07/2003 8:30 a 74.6 71.0 71.0 71.1 70.8 98 70.4 0.0 0.0 --- 0.00 29.763
08/07/2003 9:00 a 75.4 71.7 71.7 72.3 71.1 97 70.8 0.0 0.0 --- 0.00 29.765
08/07/2003 9:30 a 75.8 72.8 72.8 73.3 72.3 94 71.0 0.0 0.0 --- 0.00 29.766
08/07/2003 10:00 a 76.0 73.7 73.7 74.4 73.3 90 70.6 0.0 0.0 --- 0.00 29.770
08/07/2003 10:30 a 77.8 75.0 75.0 75.6 74.4 88 71.2 0.0 0.0 --- 0.00 29.775
08/07/2003 11:00 a 81.0 76.5 76.5 77.2 75.6 85 71.7 0.0 0.0 --- 0.00 29.775
08/07/2003 11:30 a 81.0 77.0 77.0 77.5 76.7 84 71.8 0.0 0.0 --- 0.00 29.772
08/07/2003 12:00 p 81.8 78.3 78.3 79.1 77.5 79 71.3 0.0 0.0 --- 0.00 29.758
08/07/2003 12:30 p 83.4 79.1 79.1 79.5 78.4 82 73.1 0.0 0.0 --- 0.00 29.753
08/07/2003 1:00 p 83.4 78.7 78.7 78.9 78.4 82 72.7 0.0 2.0 NNE 0.00 29.748
08/07/2003 1:30 p 83.4 78.6 78.6 78.9 78.4 82 72.6 0.0 2.0 NNE 0.00 29.745
08/07/2003 2:00 p 82.2 78.3 78.3 78.7 77.9 82 72.4 0.0 1.0 NNE 0.00 29.741
08/07/2003 2:30 p 82.3 77.7 77.7 77.9 77.5 83 72.1 0.0 1.0 NNE 0.00 29.738
08/07/2003 3:00 p 82.2 77.7 77.7 77.8 77.5 82 71.8 0.0 1.0 NNE 0.00 29.736
08/07/2003 3:30 p 81.0 77.0 77.0 77.5 76.5 85 72.1 0.0 1.0 NNE 0.00 29.735
08/07/2003 4:00 p 81.0 76.6 76.6 76.9 76.5 83 71.1 0.0 1.0 --- 0.00 29.722
08/07/2003 4:30 p 81.0 77.3 77.3 77.5 76.9 82 71.4 0.0 2.0 N 0.00 29.717
08/07/2003 5:00 p 81.0 77.3 77.3 77.4 77.2 83 71.7 0.0 1.0 --- 0.00 29.711
08/07/2003 5:30 p 81.0 77.0 77.0 77.4 76.7 82 71.1 0.0 1.0 N 0.00 29.717
08/07/2003 6:00 p 81.0 76.5 76.5 76.7 76.2 85 71.7 0.0 1.0 N 0.00 29.718
08/07/2003 6:30 p 79.7 75.9 75.9 76.2 75.4 87 71.8 0.0 1.0 N 0.00 29.724
08/07/2003 7:00 p 78.0 74.9 74.9 75.4 74.5 90 71.8 0.0 1.0 --- 0.00 29.725
08/07/2003 7:30 p 77.2 73.8 73.8 74.5 72.8 96 72.6 0.0 0.0 --- 0.01 29.715
08/07/2003 8:00 p 75.6 72.4 72.4 72.9 72.1 98 71.8 0.0 0.0 --- 0.00 29.719
08/07/2003 8:30 p 75.6 71.8 71.8 72.1 71.6 98 71.2 0.0 0.0 --- 0.02 29.724
08/07/2003 9:00 p 75.6 71.6 71.6 71.6 71.5 98 71.0 0.0 0.0 --- 0.04 29.728
08/07/2003 9:30 p 75.6 71.5 71.5 71.6 71.5 98 70.9 0.0 0.0 --- 0.08 29.729
08/07/2003 10:00 p 75.6 71.6 71.6 71.7 71.5 98 71.0 0.0 0.0 --- 0.07 29.723
08/07/2003 10:30 p 75.8 71.5 71.5 71.6 71.4 99 71.2 0.0 0.0 --- 0.08 29.719
08/07/2003 11:00 p 75.8 71.6 71.6 71.7 71.4 99 71.3 0.0 0.0 --- 0.09 29.715
08/07/2003 11:30 p 75.8 71.6 71.6 71.7 71.4 99 71.3 0.0 0.0 --- 0.04 29.702
08/08/2003 12:00 a 74.8 71.3 71.3 71.4 71.2 99 71.0 0.0 0.0 --- 0.02 29.703
08/08/2003 12:30 a 74.8 71.1 71.1 71.2 70.9 99 70.8 0.0 0.0 --- 0.00 29.704
08/08/2003 1:00 a 74.8 70.8 70.8 71.0 70.8 99 70.5 0.0 0.0 --- 0.00 29.700
08/08/2003 1:30 a 74.8 71.0 71.0 71.1 70.9 99 70.7 0.0 0.0 --- 0.01 29.694
08/08/2003 2:00 a 74.8 71.2 71.2 71.2 71.1 99 70.9 0.0 0.0 --- 0.01 29.683
08/08/2003 2:30 a 74.8 70.9 70.9 71.1 70.6 99 70.6 0.0 1.0 N 0.04 29.684
08/08/2003 3:00 a 73.8 70.4 70.4 70.6 70.3 99 70.1 0.0 1.0 NE 0.02 29.680
08/08/2003 3:30 a 73.8 70.2 70.2 70.3 69.9 99 69.9 0.0 0.0 --- 0.01 29.673
08/08/2003 4:00 a 73.8 69.8 69.8 69.9 69.8 99 69.5 0.0 0.0 --- 0.00 29.668
08/08/2003 4:30 a 73.8 69.8 69.8 69.8 69.7 99 69.5 0.0 0.0 --- 0.00 29.662
08/08/2003 5:00 a 73.8 69.8 69.8 69.8 69.8 99 69.5 0.0 0.0 --- 0.00 29.659
08/08/2003 5:30 a 73.8 69.9 69.9 70.0 69.8 99 69.6 0.0 0.0 --- 0.00 29.666
08/08/2003 6:00 a 73.8 70.0 70.0 70.1 69.9 99 69.7 0.0 0.0 --- 0.00 29.671
08/08/2003 6:30 a 73.8 70.1 70.1 70.2 70.0 99 69.8 0.0 0.0 --- 0.00 29.677
08/08/2003 7:00 a 73.8 70.1 70.1 70.1 70.0 99 69.8 0.0 0.0 --- 0.00 29.681
08/08/2003 7:30 a 73.8 70.3 70.3 70.4 70.1 99 70.0 0.0 0.0 --- 0.00 29.694
08/08/2003 8:00 a 74.8 70.6 70.6 70.7 70.4 99 70.3 0.0 0.0 --- 0.00 29.699
08/08/2003 8:30 a 74.8 70.8 70.8 71.0 70.6 99 70.5 0.0 0.0 --- 0.00 29.703
08/08/2003 9:00 a 74.8 71.4 71.4 71.8 71.0 99 71.1 0.0 0.0 --- 0.00 29.710
08/08/2003 9:30 a 76.8 72.9 72.9 74.3 71.8 99 72.6 0.0 0.0 --- 0.00 29.710
08/08/2003 10:00 a 77.8 74.3 74.3 74.9 73.7 99 74.0 0.0 0.0 --- 0.00 29.709
08/08/2003 10:30 a 78.9 75.4 75.4 75.8 74.6 99 75.1 0.0 2.0 ENE 0.00 29.715
08/08/2003 11:00 a 80.0 75.5 75.5 76.3 74.9 98 74.9 0.0 0.0 --- 0.00 29.717
08/08/2003 11:30 a 77.6 74.3 74.3 75.0 73.9 98 73.7 0.0 0.0 --- 0.00 29.728
08/08/2003 12:00 p 77.6 74.0 74.0 74.1 73.7 98 73.4 0.0 0.0 --- 0.00 29.731
08/08/2003 12:30 p 77.6 73.9 73.9 74.5 73.5 98 73.3 0.0 0.0 --- 0.00 29.735
08/08/2003 1:00 p 78.7 74.6 74.6 75.3 74.3 97 73.7 0.0 0.0 --- 0.00 29.741
08/08/2003 1:30 p 81.3 76.8 76.8 77.7 75.3 93 74.6 0.0 0.0 --- 0.00 29.741
08/08/2003 2:00 p 83.0 78.2 78.2 79.6 77.5 90 75.0 0.0 0.0 --- 0.00 29.733
08/08/2003 2:30 p 95.0 85.4 85.4 88.4 79.7 75 76.6 0.0 0.0 --- 0.00 29.732
08/08/2003 3:00 p 92.2 83.7 83.7 85.0 81.8 74 74.5 0.0 0.0 --- 0.00 29.731
08/08/2003 3:30 p 87.2 82.0 82.0 83.9 81.2 71 71.7 0.0 0.0 --- 0.00 29.721
08/08/2003 4:00 p 90.0 82.7 82.7 84.1 81.9 75 74.0 0.0 0.0 --- 0.00 29.724
08/08/2003 4:30 p 86.4 80.7 80.7 82.6 80.0 77 72.8 0.0 0.0 --- 0.00 29.724
08/08/2003 5:00 p 87.8 81.8 81.8 82.7 80.1 74 72.7 0.0 0.0 --- 0.00 29.720
08/08/2003 5:30 p 85.8 81.2 81.2 82.3 80.8 74 72.1 0.0 0.0 --- 0.00 29.722
08/08/2003 6:00 p 85.8 81.3 81.3 81.5 81.1 74 72.2 0.0 0.0 --- 0.00 29.726
08/08/2003 6:30 p 86.2 81.2 81.2 81.4 80.7 76 72.9 0.0 0.0 --- 0.00 29.728
08/08/2003 7:00 p 85.0 79.7 79.7 80.8 79.1 80 73.0 0.0 0.0 --- 0.00 29.736
08/08/2003 7:30 p 83.6 78.7 78.7 79.2 78.3 83 73.1 0.0 0.0 --- 0.00 29.745
08/08/2003 8:00 p 81.0 77.4 77.4 78.3 76.5 86 72.9 0.0 0.0 --- 0.00 29.754
08/08/2003 8:30 p 79.9 75.9 75.9 76.4 75.5 89 72.4 0.0 0.0 --- 0.00 29.764
08/08/2003 9:00 p 78.1 75.0 75.0 75.5 74.6 91 72.2 0.0 0.0 --- 0.00 29.783
08/08/2003 9:30 p 76.4 74.4 74.4 74.6 74.3 92 71.9 0.0 0.0 --- 0.00 29.784
08/08/2003 10:00 p 76.8 74.1 74.1 74.4 73.8 94 72.3 0.0 0.0 --- 0.00 29.794
08/08/2003 10:30 p 76.8 73.7 73.7 73.8 73.6 94 71.9 0.0 0.0 --- 0.00 29.798
08/08/2003 11:00 p 76.8 73.6 73.6 73.8 73.5 94 71.8 0.0 0.0 --- 0.00 29.809
08/08/2003 11:30 p 76.6 74.0 74.0 74.1 73.8 93 71.9 0.0 0.0 --- 0.00 29.808
08/09/2003 12:00 a 76.4 74.2 74.2 74.3 74.1 92 71.7 0.0 0.0 --- 0.00 29.815
08/09/2003 12:30 a 76.4 74.0 74.0 74.2 73.9 92 71.5 0.0 0.0 --- 0.00 29.815
08/09/2003 1:00 a 77.2 73.5 73.5 73.9 72.9 96 72.3 0.0 0.0 --- 0.00 29.815
08/09/2003 1:30 a 76.4 72.7 72.7 73.0 72.5 97 71.8 0.0 0.0 --- 0.00 29.814
08/09/2003 2:00 a 75.4 72.4 72.4 72.5 72.3 97 71.5 0.0 0.0 --- 0.00 29.810
08/09/2003 2:30 a 75.4 72.2 72.2 72.3 72.1 97 71.3 0.0 0.0 --- 0.00 29.801
08/09/2003 3:00 a 75.4 72.0 72.0 72.1 71.8 97 71.1 0.0 0.0 --- 0.00 29.802
08/09/2003 3:30 a 75.6 71.8 71.8 71.9 71.7 98 71.2 0.0 0.0 --- 0.00 29.802
08/09/2003 4:00 a 75.4 71.6 71.6 71.7 71.4 97 70.7 0.0 0.0 --- 0.00 29.800
08/09/2003 4:30 a 74.4 71.1 71.1 71.5 70.5 97 70.2 0.0 0.0 --- 0.00 29.805
08/09/2003 5:00 a 73.4 70.1 70.1 70.5 70.0 97 69.2 0.0 0.0 --- 0.00 29.811
08/09/2003 5:30 a 73.6 70.3 70.3 70.6 70.0 98 69.7 0.0 0.0 --- 0.00 29.814
08/09/2003 6:00 a 74.6 70.8 70.8 71.0 70.6 98 70.2 0.0 0.0 --- 0.00 29.816
08/09/2003 6:30 a 74.6 71.1 71.1 71.3 70.9 98 70.5 0.0 0.0 --- 0.00 29.821
08/09/2003 7:00 a 75.6 71.6 71.6 71.8 71.3 98 71.0 0.0 0.0 --- 0.00 29.828
08/09/2003 7:30 a 75.4 72.0 72.0 72.2 71.8 97 71.1 0.0 0.0 --- 0.00 29.837
08/09/2003 8:00 a 75.4 72.3 72.3 72.4 72.2 97 71.4 0.0 0.0 --- 0.00 29.851
08/09/2003 8:30 a 76.2 72.8 72.8 73.4 72.4 96 71.6 0.0 0.0 --- 0.00 29.852
08/09/2003 9:00 a 76.8 74.0 74.0 74.5 73.4 94 72.2 0.0 0.0 --- 0.00 29.856
08/09/2003 9:30 a 78.1 74.9 74.9 75.4 74.5 91 72.1 0.0 0.0 --- 0.00 29.850
08/09/2003 10:00 a 79.8 75.8 75.8 76.5 75.1 88 72.0 0.0 0.0 --- 0.00 29.849
08/09/2003 10:30 a 82.3 78.2 78.2 79.5 76.5 83 72.6 0.0 1.0 ENE 0.00 29.855
08/09/2003 11:00 a 83.8 78.8 78.8 79.4 78.0 84 73.6 0.0 0.0 --- 0.00 29.854
08/09/2003 11:30 a 83.6 78.9 78.9 79.5 78.0 83 73.3 0.0 1.0 --- 0.00 29.851
08/09/2003 12:00 p 83.6 79.4 79.4 80.2 78.5 83 73.8 0.0 1.0 ENE 0.00 29.843
08/09/2003 12:30 p 83.5 78.2 78.2 79.5 75.8 95 76.7 0.0 1.0 ENE 0.01 29.845
08/09/2003 1:00 p 81.6 77.3 77.3 79.9 75.6 96 76.1 0.0 1.0 ENE 0.04 29.841
08/09/2003 1:30 p 81.8 76.9 76.9 79.5 75.2 98 76.3 0.0 2.0 NNE 0.16 29.837
08/09/2003 2:00 p 80.0 75.8 75.8 76.2 75.2 98 75.2 0.0 1.0 --- 0.00 29.831
08/09/2003 2:30 p 80.0 76.4 76.4 76.6 76.0 98 75.8 0.0 0.0 --- 0.05 29.832
08/09/2003 3:00 p 81.9 76.7 76.7 76.9 76.4 99 76.4 0.0 0.0 --- 0.02 29.825
08/09/2003 3:30 p 80.0 76.3 76.3 76.7 76.1 99 76.0 0.0 0.0 --- 0.07 29.818
08/09/2003 4:00 p 81.9 76.6 76.6 76.9 76.4 99 76.3 0.0 1.0 NNE 0.00 29.811
08/09/2003 4:30 p 81.9 76.8 76.8 77.2 76.5 99 76.5 0.0 0.0 --- 0.00 29.808
08/09/2003 5:00 p 81.8 76.7 76.7 77.0 76.3 98 76.1 0.0 0.0 --- 0.00 29.800
08/09/2003 5:30 p 81.9 76.7 76.7 77.0 76.1 99 76.4 0.0 1.0 NNE 0.00 29.805
08/09/2003 6:00 p 78.9 75.0 75.0 76.1 74.6 99 74.7 0.0 0.0 --- 0.00 29.807
08/09/2003 6:30 p 78.9 74.8 74.8 75.1 74.6 99 74.5 0.0 0.0 --- 0.00 29.803
08/09/2003 7:00 p 78.9 74.9 74.9 75.1 74.6 99 74.6 0.0 0.0 --- 0.00 29.802
08/09/2003 7:30 p 78.9 74.5 74.5 74.7 74.2 99 74.2 0.0 1.0 NNE 0.00 29.807
08/09/2003 8:00 p 77.8 74.0 74.0 74.2 73.8 99 73.7 0.0 1.0 NNE 0.00 29.813
08/09/2003 8:30 p 77.8 73.7 73.7 73.8 73.6 99 73.4 0.0 1.0 --- 0.00 29.824
08/09/2003 9:00 p 77.8 73.9 73.9 74.0 73.8 99 73.6 0.0 0.0 --- 0.00 29.836
08/09/2003 9:30 p 77.8 73.7 73.7 73.9 73.5 99 73.4 0.0 1.0 --- 0.00 29.842
08/09/2003 10:00 p 76.8 73.4 73.4 73.6 73.2 99 73.1 0.0 2.0 S 0.00 29.841
08/09/2003 10:30 p 76.8 73.2 73.2 73.3 73.0 99 72.9 0.0 1.0 S 0.01 29.837
08/09/2003 11:00 p 76.8 72.8 72.8 73.1 72.5 99 72.5 0.0 0.0 --- 0.00 29.833
08/09/2003 11:30 p 76.8 72.6 72.6 72.7 72.5 99 72.3 0.0 0.0 --- 0.00 29.836
08/10/2003 12:00 a 76.8 72.7 72.7 72.8 72.7 99 72.4 0.0 0.0 --- 0.00 29.828
08/10/2003 12:30 a 76.8 72.7 72.7 72.8 72.7 99 72.4 0.0 0.0 --- 0.00 29.821
08/10/2003 1:00 a 76.8 72.7 72.7 72.8 72.5 99 72.4 0.0 0.0 --- 0.00 29.821
08/10/2003 1:30 a 75.8 72.4 72.4 72.6 72.2 99 72.1 0.0 0.0 --- 0.03 29.811
08/10/2003 2:00 a 75.8 72.2 72.2 72.3 72.0 99 71.9 0.0 0.0 --- 0.00 29.808
08/10/2003 2:30 a 75.8 71.9 71.9 72.1 71.8 99 71.6 0.0 0.0 --- 0.00 29.801
08/10/2003 3:00 a 75.8 72.0 72.0 72.2 71.8 99 71.7 0.0 1.0 S 0.01 29.816
08/10/2003 3:30 a 75.8 72.1 72.1 72.2 72.0 99 71.8 0.0 1.0 S 0.00 29.821
08/10/2003 4:00 a 75.8 72.1 72.1 72.2 72.1 99 71.8 0.0 1.0 S 0.00 29.822
08/10/2003 4:30 a 75.8 72.2 72.2 72.2 72.2 99 71.9 0.0 0.0 --- 0.00 29.820
08/10/2003 5:00 a 75.8 72.2 72.2 72.2 72.0 99 71.9 0.0 0.0 --- 0.02 29.818
08/10/2003 5:30 a 75.8 72.0 72.0 72.1 71.9 99 71.7 0.0 0.0 --- 0.00 29.810
08/10/2003 6:00 a 75.8 71.9 71.9 72.1 71.8 99 71.6 0.0 0.0 --- 0.00 29.821
08/10/2003 6:30 a 75.8 71.8 71.8 71.8 71.8 99 71.5 0.0 0.0 --- 0.00 29.830
08/10/2003 7:00 a 75.8 72.1 72.1 72.3 71.8 99 71.8 0.0 0.0 --- 0.00 29.837
08/10/2003 7:30 a 75.8 72.4 72.4 72.5 72.2 99 72.1 0.0 0.0 --- 0.00 29.841
08/10/2003 8:00 a 76.8 72.5 72.5 72.6 72.4 99 72.2 0.0 0.0 --- 0.00 29.843
08/10/2003 8:30 a 76.8 72.6 72.6 72.7 72.5 99 72.3 0.0 0.0 --- 0.00 29.844
08/10/2003 9:00 a 76.8 72.8 72.8 73.4 72.5 99 72.5 0.0 0.0 --- 0.00 29.841
08/10/2003 9:30 a 77.8 74.0 74.0 74.3 73.4 99 73.7 0.0 0.0 --- 0.00 29.833
08/10/2003 10:00 a 78.9 74.6 74.6 74.9 74.3 99 74.3 0.0 0.0 --- 0.00 29.835
08/10/2003 10:30 a 78.9 74.6 74.6 74.7 74.4 99 74.3 0.0 0.0 --- 0.00 29.843
08/10/2003 11:00 a 80.0 75.9 75.9 77.3 74.5 99 75.6 0.0 1.0 S 0.00 29.839
08/10/2003 11:30 a 81.9 77.1 77.1 77.5 76.5 99 76.8 0.0 2.0 S 0.00 29.844
08/10/2003 12:00 p 86.6 78.5 78.5 79.9 76.7 98 77.9 0.0 2.0 S 0.00 29.832
08/10/2003 12:30 p 88.8 80.3 80.3 81.9 79.2 96 79.1 0.0 3.0 S 0.00 29.824
08/10/2003 1:00 p 86.4 79.4 79.4 81.9 76.1 97 78.5 0.0 0.0 --- 0.02 29.815
08/10/2003 1:30 p 95.8 82.9 82.9 86.6 76.1 92 80.3 0.0 0.0 --- 0.00 29.806
08/10/2003 2:00 p 83.9 78.3 78.3 85.0 75.1 99 78.0 0.0 2.0 WNW 0.24 29.798
08/10/2003 2:30 p 78.9 75.1 75.1 75.4 74.7 99 74.8 0.0 1.0 NW 0.01 29.797
08/10/2003 3:00 p 78.9 74.7 74.7 74.7 74.6 99 74.4 0.0 0.0 --- 0.00 29.794
08/10/2003 3:30 p 78.9 74.5 74.5 75.0 74.2 99 74.2 0.0 0.0 --- 0.00 29.778
08/10/2003 4:00 p 81.9 76.8 76.8 77.9 75.0 99 76.5 0.0 0.0 --- 0.01 29.769
08/10/2003 4:30 p 83.8 78.4 78.4 79.0 77.8 98 77.8 0.0 2.0 NW 0.00 29.769
08/10/2003 5:00 p 86.4 79.3 79.3 80.2 78.6 97 78.4 0.0 1.0 SW 0.00 29.759
08/10/2003 6:00 p 89.1 79.5 79.5 80.0 79.2 97 78.6 0.0 1.0 --- 0.00 29.759
08/10/2003 6:30 p 86.4 79.1 79.1 79.3 79.1 97 78.2 0.0 1.0 --- 0.00 29.758
08/10/2003 7:00 p 83.7 78.3 78.3 79.1 77.6 97 77.4 0.0 1.0 WSW 0.00 29.771
08/10/2003 7:30 p 81.7 77.1 77.1 77.6 76.8 97 76.2 0.0 1.0 --- 0.00 29.776
08/10/2003 8:00 p 80.0 76.4 76.4 76.8 76.1 98 75.8 0.0 1.0 --- 0.00 29.787
08/10/2003 8:30 p 80.0 75.8 75.8 76.0 75.5 97 74.9 0.0 1.0 --- 0.00 29.785
08/10/2003 9:00 p 78.8 75.2 75.2 75.5 75.1 98 74.6 0.0 0.0 --- 0.00 29.802
08/10/2003 9:30 p 78.8 75.4 75.4 75.6 75.3 98 74.8 0.0 1.0 --- 0.00 29.815
08/10/2003 10:00 p 80.0 75.5 75.5 75.6 75.3 98 74.9 0.0 0.0 --- 0.00 29.819
08/10/2003 10:30 p 78.8 75.2 75.2 75.3 74.9 98 74.6 0.0 1.0 SW 0.00 29.812
08/10/2003 11:00 p 78.8 74.6 74.6 74.9 74.2 98 74.0 0.0 0.0 --- 0.00 29.816
08/10/2003 11:30 p 77.6 74.0 74.0 74.3 73.8 98 73.4 0.0 0.0 --- 0.00 29.821
08/11/2003 12:00 a 77.6 73.6 73.6 73.8 73.3 98 73.0 0.0 0.0 --- 0.00 29.819
08/11/2003 12:30 a 76.8 73.1 73.1 73.3 73.0 99 72.8 0.0 0.0 --- 0.00 29.816
08/11/2003 1:00 a 76.6 73.0 73.0 73.1 72.9 98 72.4 0.0 0.0 --- 0.00 29.816
08/11/2003 1:30 a 76.6 73.0 73.0 73.0 72.9 98 72.4 0.0 0.0 --- 0.00 29.816
08/11/2003 2:00 a 76.4 72.9 72.9 73.0 72.8 97 72.0 0.0 0.0 --- 0.00 29.801
08/11/2003 2:30 a 76.2 72.6 72.6 72.8 72.4 96 71.4 0.0 0.0 --- 0.00 29.801
08/11/2003 3:00 a 75.2 72.3 72.3 72.4 72.2 96 71.1 0.0 1.0 SW 0.00 29.797
08/11/2003 3:30 a 75.0 72.2 72.2 72.2 72.1 95 70.7 0.0 0.0 --- 0.00 29.796
08/11/2003 4:00 a 75.0 72.0 72.0 72.1 72.0 95 70.5 0.0 0.0 --- 0.00 29.791
08/11/2003 4:30 a 75.0 71.9 71.9 72.0 71.8 95 70.4 0.0 1.0 --- 0.00 29.787
08/11/2003 5:00 a 75.2 71.7 71.7 71.8 71.4 96 70.5 0.0 1.0 --- 0.00 29.787
08/11/2003 5:30 a 74.6 70.5 70.5 71.3 70.2 98 69.9 0.0 0.0 --- 0.01 29.789
08/11/2003 6:00 a 73.8 70.1 70.1 70.2 70.0 99 69.8 0.0 0.0 --- 0.00 29.789
08/11/2003 6:30 a 73.8 70.1 70.1 70.2 70.0 99 69.8 0.0 0.0 --- 0.00 29.795
08/11/2003 7:00 a 73.8 70.2 70.2 70.4 70.1 99 69.9 0.0 0.0 --- 0.00 29.799
08/11/2003 7:30 a 74.8 70.5 70.5 70.8 70.3 99 70.2 0.0 0.0 --- 0.00 29.804
08/11/2003 8:00 a 74.8 71.4 71.4 72.3 70.8 99 71.1 0.0 0.0 --- 0.00 29.807
08/11/2003 8:30 a 76.8 72.5 72.5 72.7 72.3 99 72.2 0.0 0.0 --- 0.01 29.817
08/11/2003 9:00 a 75.6 72.2 72.2 72.4 72.1 98 71.6 0.0 0.0 --- 0.00 29.818
08/11/2003 9:30 a 75.6 72.3 72.3 72.6 72.2 98 71.7 0.0 0.0 --- 0.00 29.818
08/11/2003 10:00 a 76.4 72.9 72.9 73.1 72.6 97 72.0 0.0 0.0 --- 0.00 29.821
08/11/2003 10:30 a 77.2 73.6 73.6 74.2 73.1 96 72.4 0.0 0.0 --- 0.00 29.827
08/11/2003 11:00 a 77.2 74.0 74.0 74.4 73.9 96 72.8 0.0 1.0 --- 0.00 29.826
08/11/2003 11:30 a 78.3 75.2 75.2 75.8 74.4 93 73.0 0.0 1.0 SSW 0.00 29.827
08/11/2003 12:00 p 80.0 76.2 76.2 76.6 75.6 93 74.0 0.0 2.0 SSW 0.00 29.821
08/11/2003 12:30 p 81.2 77.0 77.0 77.8 76.4 92 74.5 0.0 1.0 SSW 0.00 29.817
08/11/2003 1:00 p 84.8 79.1 79.1 80.2 77.8 89 75.6 0.0 1.0 SSW 0.00 29.807
08/11/2003 1:30 p 88.4 80.9 80.9 83.8 79.9 87 76.7 0.0 2.0 SSW 0.00 29.791
08/11/2003 2:00 p 95.6 84.1 84.1 86.2 82.5 84 78.7 0.0 1.0 SSW 0.00 29.795
08/11/2003 2:30 p 90.5 81.5 81.5 82.9 80.4 85 76.6 0.0 1.0 SSW 0.00 29.788
08/11/2003 3:00 p 86.8 80.8 80.8 82.2 80.5 79 73.7 0.0 1.0 --- 0.00 29.795
08/11/2003 3:30 p 92.8 83.5 83.5 84.0 82.2 76 75.1 0.0 1.0 SSW 0.00 29.786
08/11/2003 4:00 p 90.2 82.8 82.8 83.7 82.2 76 74.5 0.0 1.0 SSW 0.00 29.782
08/11/2003 4:30 p 90.2 83.0 83.0 83.5 82.3 76 74.7 0.0 1.0 NNE 0.00 29.778
08/11/2003 5:00 p 90.0 82.6 82.6 83.1 82.0 75 73.9 0.0 2.0 S 0.00 29.772
08/11/2003 5:30 p 90.0 82.5 82.5 83.1 81.9 75 73.8 0.0 1.0 S 0.00 29.767
08/11/2003 6:00 p 87.2 81.4 81.4 82.6 79.9 81 75.0 0.0 1.0 ESE 0.00 29.760
08/11/2003 6:30 p 83.6 79.0 79.0 79.9 78.3 83 73.4 0.0 0.0 --- 0.00 29.766
08/11/2003 7:00 p 78.9 75.4 75.4 78.3 74.5 99 75.1 0.0 3.0 NE 0.29 29.775
08/11/2003 7:30 p 78.9 74.7 74.7 74.8 74.5 99 74.4 0.0 0.0 --- 0.00 29.776
08/11/2003 8:00 p 78.9 74.8 74.8 74.9 74.6 99 74.5 0.0 0.0 --- 0.00 29.782
08/11/2003 8:30 p 78.9 74.5 74.5 74.9 73.7 99 74.2 0.0 0.0 --- 0.00 29.798
08/11/2003 9:00 p 76.8 73.3 73.3 73.8 72.8 99 73.0 0.0 2.0 N 0.00 29.817
08/11/2003 9:30 p 76.8 72.5 72.5 72.8 72.3 99 72.2 0.0 0.0 --- 0.00 29.828
08/11/2003 10:00 p 75.8 72.2 72.2 72.4 72.1 99 71.9 0.0 0.0 --- 0.00 29.840
08/11/2003 10:30 p 75.8 72.3 72.3 72.4 72.1 99 72.0 0.0 0.0 --- 0.00 29.841
08/11/2003 11:00 p 75.8 72.4 72.4 72.4 72.3 99 72.1 0.0 1.0 S 0.00 29.843
08/11/2003 11:30 p 75.8 72.3 72.3 72.3 72.2 99 72.0 0.0 1.0 S 0.00 29.850
08/12/2003 12:00 a 75.8 72.1 72.1 72.2 72.1 99 71.8 0.0 1.0 --- 0.00 29.852
08/12/2003 12:30 a 75.8 72.0 72.0 72.1 71.7 99 71.7 0.0 0.0 --- 0.00 29.845
08/12/2003 1:00 a 75.8 71.6 71.6 71.7 71.5 99 71.3 0.0 0.0 --- 0.00 29.852
08/12/2003 1:30 a 75.8 71.5 71.5 71.6 71.4 99 71.2 0.0 0.0 --- 0.00 29.856
08/12/2003 2:00 a 74.8 71.2 71.2 71.4 71.0 99 70.9 0.0 1.0 --- 0.00 29.855
08/12/2003 2:30 a 74.8 70.7 70.7 71.0 70.4 99 70.4 0.0 0.0 --- 0.00 29.852
08/12/2003 3:00 a 74.8 70.6 70.6 70.6 70.5 99 70.3 0.0 0.0 --- 0.00 29.856
08/12/2003 3:30 a 74.8 70.6 70.6 70.7 70.5 99 70.3 0.0 0.0 --- 0.00 29.860
08/12/2003 4:00 a 74.8 70.8 70.8 70.8 70.7 99 70.5 0.0 0.0 --- 0.00 29.859
08/12/2003 4:30 a 74.8 70.7 70.7 70.7 70.6 99 70.4 0.0 0.0 --- 0.00 29.874
08/12/2003 5:00 a 74.8 70.7 70.7 70.8 70.7 99 70.4 0.0 0.0 --- 0.00 29.877
08/12/2003 5:30 a 74.8 70.6 70.6 70.7 70.4 99 70.3 0.0 0.0 --- 0.00 29.877
08/12/2003 6:00 a 73.8 70.1 70.1 70.4 69.9 99 69.8 0.0 0.0 --- 0.00 29.885
08/12/2003 6:30 a 73.8 70.1 70.1 70.2 69.9 99 69.8 0.0 0.0 --- 0.00 29.894
08/12/2003 7:00 a 73.8 70.2 70.2 70.4 70.2 99 69.9 0.0 0.0 --- 0.00 29.909
08/12/2003 7:30 a 74.8 70.5 70.5 70.8 70.3 99 70.2 0.0 0.0 --- 0.00 29.925
08/12/2003 8:00 a 75.8 71.6 71.6 72.5 70.8 99 71.3 0.0 0.0 --- 0.00 29.929
08/12/2003 8:30 a 76.8 72.6 72.6 72.9 72.4 99 72.3 0.0 0.0 --- 0.00 29.936
08/12/2003 9:00 a 76.8 73.4 73.4 74.3 72.8 99 73.1 0.0 0.0 --- 0.00 29.942
08/12/2003 9:30 a 78.9 74.7 74.7 75.1 74.3 99 74.4 0.0 1.0 S 0.00 29.945
08/12/2003 10:00 a 78.9 75.2 75.2 76.0 74.8 99 74.9 0.0 0.0 --- 0.00 29.954
08/12/2003 10:30 a 81.7 76.9 76.9 77.5 76.0 97 76.0 0.0 0.0 --- 0.00 29.960
08/12/2003 11:00 a 83.4 77.7 77.7 78.4 76.5 94 75.8 0.0 1.0 S 0.00 29.965
08/12/2003 11:30 a 85.6 79.4 79.4 79.8 78.4 93 77.2 0.0 1.0 S 0.00 29.966
08/12/2003 12:00 p 87.0 80.0 80.0 80.4 79.2 90 76.8 0.0 1.0 --- 0.00 29.971
08/12/2003 12:30 p 87.0 81.3 81.3 83.1 80.2 80 74.5 0.0 0.0 --- 0.00 29.976
08/12/2003 1:00 p 92.5 84.1 84.1 86.4 82.3 75 75.3 0.0 1.0 S 0.00 29.971
08/12/2003 1:30 p 94.6 86.3 86.3 87.8 84.3 69 74.9 0.0 1.0 SE 0.00 29.972
08/12/2003 2:00 p 93.8 88.0 88.0 91.7 85.0 56 70.3 0.0 1.0 --- 0.00 29.974
08/12/2003 2:30 p 100.0 93.3 93.3 95.5 91.8 50 71.9 0.0 1.0 --- 0.00 29.970
08/12/2003 3:00 p 103.5 93.0 93.0 96.2 90.3 55 74.5 0.0 1.0 SE 0.00 29.965
08/12/2003 3:30 p 95.8 88.3 88.3 90.3 87.3 62 73.6 0.0 1.0 N 0.00 29.966
08/12/2003 4:00 p 93.8 86.5 86.5 87.5 85.9 62 71.9 0.0 1.0 N 0.00 29.966
08/12/2003 4:30 p 94.2 86.6 86.6 87.4 86.0 63 72.5 0.0 1.0 --- 0.00 29.966
08/12/2003 5:00 p 91.8 86.0 86.0 86.4 85.3 62 71.5 0.0 0.0 --- 0.00 29.968
08/12/2003 5:30 p 90.6 84.8 84.8 85.3 84.6 64 71.3 0.0 1.0 --- 0.00 29.962
08/12/2003 6:00 p 91.3 83.7 83.7 84.7 82.4 71 73.3 0.0 0.0 --- 0.00 29.961
08/12/2003 6:30 p 87.6 81.7 81.7 82.4 81.4 73 72.2 0.0 0.0 --- 0.00 29.966
08/12/2003 7:00 p 86.8 81.1 81.1 81.5 80.8 79 74.0 0.0 1.0 --- 0.00 29.981
08/12/2003 7:30 p 85.0 80.3 80.3 80.8 79.4 80 73.6 0.0 2.0 N 0.00 29.997
08/12/2003 8:00 p 83.8 78.6 78.6 79.4 77.7 84 73.4 0.0 1.0 NNW 0.00 30.010
08/12/2003 8:30 p 81.0 77.0 77.0 77.7 76.4 88 73.2 0.0 0.0 --- 0.00 30.013
08/12/2003 9:00 p 79.9 76.2 76.2 76.4 76.0 89 72.7 0.0 0.0 --- 0.00 30.019
08/12/2003 9:30 p 80.0 75.7 75.7 76.0 75.5 90 72.6 0.0 0.0 --- 0.00 30.037
08/12/2003 10:00 p 80.0 75.5 75.5 75.6 75.4 90 72.4 0.0 0.0 --- 0.00 30.046
08/12/2003 10:30 p 78.2 75.1 75.1 75.4 74.7 92 72.6 0.0 0.0 --- 0.00 30.053
08/12/2003 11:00 p 76.8 74.4 74.4 74.7 74.1 94 72.6 0.0 0.0 --- 0.00 30.059
08/12/2003 11:30 p 76.8 74.0 74.0 74.1 73.9 94 72.2 0.0 0.0 --- 0.00 30.063
08/13/2003 12:00 a 77.0 73.7 73.7 73.9 73.4 95 72.2 0.0 0.0 --- 0.00 30.067
08/13/2003 12:30 a 76.2 73.3 73.3 73.4 73.2 96 72.1 0.0 0.0 --- 0.00 30.068
08/13/2003 1:00 a 76.2 73.2 73.2 73.3 73.0 96 72.0 0.0 0.0 --- 0.00 30.061
08/13/2003 1:30 a 76.4 73.2 73.2 73.3 73.1 97 72.3 0.0 0.0 --- 0.00 30.064
08/13/2003 2:00 a 76.4 73.2 73.2 73.3 73.2 97 72.3 0.0 0.0 --- 0.00 30.062
08/13/2003 2:30 a 77.2 73.7 73.7 74.1 73.3 96 72.5 0.0 0.0 --- 0.00 30.066
08/13/2003 3:00 a 77.0 74.3 74.3 74.4 74.0 95 72.8 0.0 1.0 --- 0.00 30.065
08/13/2003 3:30 a 77.0 74.3 74.3 74.4 74.3 95 72.8 0.0 0.0 --- 0.00 30.057
08/13/2003 4:00 a 77.0 74.3 74.3 74.3 74.1 95 72.8 0.0 0.0 --- 0.00 30.058
08/13/2003 4:30 a 77.0 74.1 74.1 74.2 74.0 95 72.6 0.0 0.0 --- 0.00 30.068
08/13/2003 5:00 a 77.0 73.9 73.9 74.1 73.8 95 72.4 0.0 0.0 --- 0.00 30.071
08/13/2003 5:30 a 77.2 73.7 73.7 73.9 73.6 96 72.5 0.0 0.0 --- 0.00 30.082
08/13/2003 6:00 a 77.2 73.6 73.6 73.6 73.5 96 72.4 0.0 0.0 --- 0.00 30.087
08/13/2003 6:30 a 77.2 73.7 73.7 73.8 73.6 96 72.5 0.0 0.0 --- 0.00 30.095
08/13/2003 7:00 a 77.0 74.0 74.0 74.3 73.8 95 72.5 0.0 0.0 --- 0.00 30.101
08/13/2003 7:30 a 78.2 74.8 74.8 75.3 74.3 92 72.3 0.0 0.0 --- 0.00 30.106
08/13/2003 8:00 a 80.0 75.6 75.6 75.9 75.2 91 72.8 0.0 0.0 --- 0.00 30.110
08/13/2003 8:30 a 80.0 76.1 76.1 76.5 75.8 90 73.0 0.0 0.0 --- 0.00 30.114
08/13/2003 9:00 a 81.0 77.1 77.1 77.9 76.5 86 72.6 0.0 0.0 --- 0.00 30.120
08/13/2003 9:30 a 83.4 79.0 79.0 79.9 77.9 82 73.0 0.0 0.0 --- 0.00 30.126
08/13/2003 10:00 a 86.6 80.6 80.6 81.4 79.8 78 73.1 0.0 1.0 WSW 0.00 30.127
08/13/2003 10:30 a 88.2 82.2 82.2 83.0 81.4 76 73.9 0.0 2.0 S 0.00 30.134
08/13/2003 11:00 a 90.2 82.9 82.9 83.3 82.6 76 74.6 0.0 1.0 --- 0.00 30.134
08/13/2003 11:30 a 92.2 83.6 83.6 84.1 83.0 74 74.4 0.0 0.0 --- 0.00 30.136
08/13/2003 12:00 p 93.4 85.0 85.0 85.8 84.1 71 74.5 0.0 2.0 S 0.00 30.129
08/13/2003 12:30 p 94.6 86.1 86.1 86.3 85.7 69 74.7 0.0 1.0 --- 0.00 30.130
08/13/2003 1:00 p 95.4 90.7 90.7 96.4 86.2 48 68.3 0.0 0.0 --- 0.00 30.121
08/13/2003 1:30 p 105.8 96.2 96.2 97.5 95.3 48 73.3 0.0 1.0 S 0.00 30.113
08/13/2003 2:00 p 112.2 96.8 96.8 98.6 94.2 52 76.3 0.0 1.0 SSW 0.00 30.099
08/13/2003 2:30 p 104.9 94.5 94.5 95.5 93.8 51 73.6 0.0 1.0 SSW 0.00 30.091
08/13/2003 3:00 p 109.2 93.9 93.9 95.7 90.2 59 77.4 0.0 1.0 S 0.00 30.088
08/13/2003 3:30 p 97.0 88.4 88.4 90.2 87.3 65 75.1 0.0 1.0 SSE 0.00 30.082
08/13/2003 4:00 p 96.2 86.5 86.5 87.4 85.8 68 74.7 0.0 0.0 --- 0.00 30.086
08/13/2003 4:30 p 94.2 86.3 86.3 86.6 85.9 68 74.5 0.0 0.0 --- 0.00 30.080
08/13/2003 5:00 p 94.6 84.8 84.8 86.0 83.7 74 75.6 0.0 0.0 --- 0.00 30.071
08/13/2003 5:30 p 91.6 84.2 84.2 84.7 83.7 72 74.2 0.0 0.0 --- 0.00 30.070
08/13/2003 6:00 p 92.2 83.8 83.8 84.0 83.6 74 74.6 0.0 0.0 --- 0.00 30.075
08/13/2003 6:30 p 93.1 83.5 83.5 83.9 83.1 77 75.5 0.0 0.0 --- 0.00 30.066
08/13/2003 7:00 p 90.8 82.7 82.7 83.1 82.6 79 75.5 0.0 0.0 --- 0.00 30.073
08/13/2003 7:30 p 89.3 81.8 81.8 82.6 80.7 81 75.4 0.0 0.0 --- 0.00 30.080
08/13/2003 8:00 p 85.8 79.9 79.9 80.7 79.1 84 74.6 0.0 0.0 --- 0.00 30.082
08/13/2003 8:30 p 82.7 78.4 78.4 79.1 77.7 87 74.2 0.0 0.0 --- 0.00 30.092
08/13/2003 9:00 p 81.0 77.4 77.4 77.8 77.1 89 73.9 0.0 0.0 --- 0.00 30.106
08/13/2003 9:30 p 81.0 76.7 76.7 77.2 76.1 90 73.5 0.0 0.0 --- 0.00 30.102
08/13/2003 10:00 p 80.0 75.7 75.7 76.1 75.4 92 73.2 0.0 0.0 --- 0.00 30.109
08/13/2003 10:30 p 78.4 75.2 75.2 75.4 74.9 94 73.4 0.0 0.0 --- 0.00 30.111
08/13/2003 11:00 p 78.4 74.6 74.6 74.9 74.3 94 72.8 0.0 0.0 --- 0.00 30.112
08/13/2003 11:30 p 77.0 74.0 74.0 74.3 73.7 95 72.5 0.0 0.0 --- 0.00 30.113
08/14/2003 12:00 a 77.0 73.7 73.7 73.9 73.5 95 72.2 0.0 0.0 --- 0.00 30.113
08/14/2003 12:30 a 76.2 73.3 73.3 73.5 72.9 96 72.1 0.0 0.0 --- 0.00 30.108
08/14/2003 1:00 a 76.2 72.7 72.7 73.0 72.4 96 71.5 0.0 0.0 --- 0.00 30.111
08/14/2003 1:30 a 75.2 72.1 72.1 72.4 71.8 96 70.9 0.0 0.0 --- 0.00 30.108
08/14/2003 2:00 a 75.4 71.5 71.5 71.8 71.4 97 70.6 0.0 0.0 --- 0.00 30.108
08/14/2003 2:30 a 74.4 71.2 71.2 71.4 71.0 97 70.3 0.0 0.0 --- 0.00 30.112
08/14/2003 3:00 a 74.4 70.9 70.9 71.1 70.7 97 70.0 0.0 0.0 --- 0.00 30.113
08/14/2003 3:30 a 74.4 70.6 70.6 70.8 70.4 97 69.7 0.0 0.0 --- 0.00 30.121
08/14/2003 4:00 a 73.4 70.2 70.2 70.5 69.9 97 69.3 0.0 0.0 --- 0.00 30.126
08/14/2003 4:30 a 73.4 69.7 69.7 69.9 69.5 97 68.8 0.0 0.0 --- 0.00 30.126
08/14/2003 5:00 a 71.7 69.3 69.3 69.5 69.1 97 68.4 0.0 0.0 --- 0.00 30.126
08/14/2003 5:30 a 71.7 69.0 69.0 69.1 68.7 97 68.1 0.0 0.0 --- 0.00 30.134
08/14/2003 6:00 a 71.7 68.6 68.6 68.7 68.5 97 67.7 0.0 0.0 --- 0.00 30.137
08/14/2003 6:30 a 71.7 68.5 68.5 68.6 68.4 97 67.6 0.0 0.0 --- 0.00 30.139
08/14/2003 7:00 a 71.7 68.7 68.7 69.0 68.4 97 67.8 0.0 0.0 --- 0.00 30.144
08/14/2003 7:30 a 73.4 69.6 69.6 70.4 69.0 97 68.7 0.0 0.0 --- 0.00 30.148
08/14/2003 8:00 a 74.2 71.7 71.7 73.6 70.4 91 68.9 0.0 0.0 --- 0.00 30.147
08/14/2003 8:30 a 77.5 74.5 74.5 75.3 73.6 85 69.7 0.0 0.0 --- 0.00 30.146
08/14/2003 9:00 a 78.7 76.2 76.2 78.6 75.3 77 68.5 0.0 0.0 --- 0.00 30.144
08/14/2003 9:30 a 83.6 81.0 81.0 84.5 78.7 63 67.2 0.0 0.0 --- 0.00 30.141
08/14/2003 10:00 a 89.4 84.0 84.0 85.8 82.8 66 71.4 0.0 1.0 SE 0.00 30.142
08/14/2003 10:30 a 85.0 83.0 83.0 85.2 82.6 59 67.2 0.0 1.0 --- 0.00 30.145
08/14/2003 11:00 a 88.8 85.0 85.0 86.3 84.0 59 69.1 0.0 0.0 --- 0.00 30.145
08/14/2003 11:30 a 86.7 84.3 84.3 84.7 84.0 57 67.4 0.0 1.0 --- 0.00 30.134
08/14/2003 12:00 p 87.4 85.3 85.3 85.7 84.6 52 65.7 0.0 2.0 SE 0.00 30.129
08/14/2003 12:30 p 87.8 86.3 86.3 87.1 85.6 49 64.9 0.0 1.0 SE 0.00 30.122
08/14/2003 1:00 p 92.6 92.0 92.0 98.2 87.0 33 58.8 0.0 1.0 --- 0.00 30.113
08/14/2003 1:30 p 102.8 98.6 98.6 99.7 97.8 33 64.5 0.0 0.0 --- 0.00 30.108
08/14/2003 2:00 p 104.6 98.5 98.5 100.4 97.0 36 67.0 0.0 2.0 SE 0.00 30.097
08/14/2003 2:30 p 103.0 98.1 98.1 98.6 97.5 36 66.6 0.0 0.0 --- 0.00 30.091
08/14/2003 3:00 p 102.2 96.5 96.5 98.1 93.4 38 66.8 0.0 1.0 SE 0.00 30.082
08/14/2003 3:30 p 94.8 91.7 91.7 93.4 90.9 42 65.4 0.0 2.0 SE 0.00 30.074
08/14/2003 4:00 p 93.9 90.6 90.6 91.0 90.1 43 65.1 0.0 1.0 SE 0.00 30.066
08/14/2003 4:30 p 93.5 90.1 90.1 90.4 89.7 45 65.9 0.0 255.0 SE 0.00 30.052
08/14/2003 5:00 p 92.8 89.3 89.3 89.7 89.0 47 66.4 0.0 1.0 ENE 0.00 30.050
08/14/2003 5:30 p 93.2 88.3 88.3 89.0 87.4 54 69.6 0.0 0.0 --- 0.00 30.049
08/14/2003 6:00 p 91.8 86.8 86.8 87.5 85.7 56 69.2 0.0 1.0 --- 0.00 30.040
08/14/2003 6:30 p 88.8 85.1 85.1 85.7 84.4 59 69.2 0.0 1.0 E 0.00 30.037
08/14/2003 7:00 p 86.2 83.4 83.4 84.4 82.6 63 69.5 0.0 0.0 --- 0.00 30.033
08/14/2003 7:30 p 87.0 81.8 81.8 82.6 80.5 70 71.1 0.0 0.0 --- 0.00 30.033
08/14/2003 8:00 p 84.2 79.5 79.5 80.5 78.4 76 71.3 0.0 0.0 --- 0.00 30.041
08/14/2003 8:30 p 81.0 77.2 77.2 78.4 76.2 80 70.6 0.0 0.0 --- 0.00 30.043
08/14/2003 9:00 p 79.4 75.7 75.7 76.2 75.3 84 70.5 0.0 0.0 --- 0.00 30.049
08/14/2003 9:30 p 77.5 75.4 75.4 75.7 75.1 85 70.6 0.0 0.0 --- 0.00 30.057
08/14/2003 10:00 p 77.7 74.7 74.7 75.5 74.0 87 70.6 0.0 0.0 --- 0.00 30.061
08/14/2003 10:30 p 76.0 73.6 73.6 74.0 73.3 89 70.2 0.0 0.0 --- 0.00 30.061
08/14/2003 11:00 p 75.0 73.1 73.1 73.3 72.9 89 69.7 0.0 0.0 --- 0.00 30.062
08/14/2003 11:30 p 75.0 72.7 72.7 72.9 72.6 89 69.3 0.0 0.0 --- 0.00 30.061
08/15/2003 12:00 a 74.0 72.3 72.3 72.7 72.0 88 68.6 0.0 0.0 --- 0.00 30.057
08/15/2003 12:30 a 73.0 71.4 71.4 71.9 71.0 90 68.3 0.0 0.0 --- 0.00 30.050
08/15/2003 1:00 a 73.2 70.5 70.5 71.0 70.0 91 67.8 0.0 0.0 --- 0.00 30.047
08/15/2003 1:30 a 71.3 69.4 69.4 70.0 68.9 93 67.3 0.0 0.0 --- 0.00 30.048
08/15/2003 2:00 a 71.4 68.8 68.8 69.0 68.6 94 67.0 0.0 0.0 --- 0.00 30.043
08/15/2003 2:30 a 70.0 68.4 68.4 68.6 68.2 94 66.6 0.0 0.0 --- 0.00 30.045
08/15/2003 3:00 a 70.0 68.0 68.0 68.3 67.6 94 66.2 0.0 0.0 --- 0.00 30.043
08/15/2003 3:30 a 67.5 67.5 67.5 67.6 67.4 95 66.0 0.0 0.0 --- 0.00 30.035
08/15/2003 4:00 a 67.2 67.2 67.2 67.4 67.0 96 66.0 0.0 0.0 --- 0.00 30.030
08/15/2003 4:30 a 66.9 66.9 66.9 67.0 66.8 96 65.7 0.0 0.0 --- 0.00 30.026
08/15/2003 5:00 a 66.5 66.5 66.5 66.8 66.2 96 65.3 0.0 0.0 --- 0.00 30.023
08/15/2003 5:30 a 66.0 66.0 66.0 66.2 65.8 96 64.8 0.0 0.0 --- 0.00 30.020
08/15/2003 6:00 a 65.6 65.6 65.6 65.8 65.6 96 64.4 0.0 0.0 --- 0.00 30.026
08/15/2003 6:30 a 65.7 65.7 65.7 65.9 65.6 96 64.5 0.0 0.0 --- 0.00 30.025
08/15/2003 7:00 a 66.0 66.0 66.0 66.2 65.8 97 65.1 0.0 0.0 --- 0.00 30.022
08/15/2003 7:30 a 66.3 66.3 66.3 66.4 66.2 96 65.1 0.0 0.0 --- 0.00 30.025
08/15/2003 8:00 a 67.5 67.5 67.5 68.6 66.4 96 66.3 0.0 0.0 --- 0.00 30.020
08/15/2003 8:30 a 72.0 69.7 69.7 70.7 68.6 89 66.3 0.0 0.0 --- 0.00 30.024
08/15/2003 9:00 a 72.8 72.3 72.3 75.4 70.7 74 63.6 0.0 0.0 --- 0.00 30.018
08/15/2003 9:30 a 79.2 78.3 78.3 80.3 75.4 62 64.2 0.0 0.0 --- 0.00 30.013
08/15/2003 10:00 a 83.4 80.5 80.5 82.2 79.7 62 66.3 0.0 0.0 --- 0.00 30.012
08/15/2003 10:30 a 82.6 80.6 80.6 84.0 79.5 58 64.5 0.0 0.0 --- 0.00 30.011
08/15/2003 11:00 a 85.0 82.9 82.9 85.1 81.5 60 67.6 0.0 0.0 --- 0.00 30.004
08/15/2003 11:30 a 83.7 81.8 81.8 82.3 81.4 57 65.1 0.0 1.0 --- 0.00 29.992
08/15/2003 12:00 p 85.0 82.7 82.7 83.2 82.3 55 64.9 0.0 1.0 --- 0.00 29.990
08/15/2003 12:30 p 86.5 84.0 84.0 85.1 83.2 55 66.1 0.0 0.0 --- 0.00 29.980
08/15/2003 1:00 p 91.6 90.6 90.6 97.7 85.1 33 57.6 0.0 1.0 --- 0.00 29.969
08/15/2003 1:30 p 102.2 99.2 99.2 100.6 97.7 32 64.2 0.0 1.0 E 0.00 29.959
08/15/2003 2:00 p 101.6 98.7 98.7 99.2 98.1 31 62.8 0.0 2.0 E 0.00 29.945
08/15/2003 2:30 p 100.6 99.2 99.2 99.7 98.5 29 61.4 0.0 1.0 ESE 0.00 29.934
08/15/2003 3:00 p 101.5 97.5 97.5 98.9 92.8 33 63.6 0.0 2.0 E 0.00 29.925
08/15/2003 3:30 p 92.6 90.8 90.8 92.8 89.9 38 61.7 0.0 2.0 --- 0.00 29.914
08/15/2003 4:00 p 90.8 89.6 89.6 89.9 89.4 36 59.1 0.0 2.0 ESE 0.00 29.902
08/15/2003 4:30 p 89.7 89.2 89.2 89.5 88.9 39 61.0 0.0 1.0 --- 0.00 29.890
08/15/2003 5:00 p 91.2 88.6 88.6 89.2 88.3 43 63.3 0.0 0.0 --- 0.00 29.881
08/15/2003 5:30 p 89.6 87.9 87.9 88.4 87.2 44 63.3 0.0 1.0 --- 0.00 29.877
08/15/2003 6:00 p 87.8 86.1 86.1 87.2 85.2 49 64.7 0.0 1.0 --- 0.00 29.873
08/15/2003 6:30 p 86.3 84.1 84.1 85.2 83.1 53 65.1 0.0 0.0 --- 0.00 29.861
08/15/2003 7:00 p 84.3 82.0 82.0 83.1 80.7 61 67.2 0.0 0.0 --- 0.00 29.852
08/15/2003 7:30 p 82.8 79.5 79.5 80.7 78.2 68 68.0 0.0 0.0 --- 0.00 29.845
08/15/2003 8:00 p 79.8 77.2 77.2 78.2 76.0 74 68.3 0.0 0.0 --- 0.00 29.838
08/15/2003 8:30 p 77.0 75.4 75.4 75.9 74.8 76 67.3 0.0 0.0 --- 0.00 29.841
08/15/2003 9:00 p 76.0 74.0 74.0 74.8 73.6 81 67.8 0.0 0.0 --- 0.00 29.840
08/15/2003 9:30 p 75.0 73.2 73.2 73.6 72.6 83 67.7 0.0 0.0 --- 0.00 29.840
08/15/2003 10:00 p 74.0 72.1 72.1 72.7 71.7 86 67.7 0.0 0.0 --- 0.00 29.839
08/15/2003 10:30 p 74.0 71.5 71.5 71.8 71.1 88 67.8 0.0 0.0 --- 0.00 29.838
08/15/2003 11:00 p 73.0 70.8 70.8 71.1 70.5 90 67.7 0.0 0.0 --- 0.00 29.838
08/15/2003 11:30 p 72.2 70.4 70.4 70.6 70.3 91 67.7 0.0 0.0 --- 0.00 29.832
08/16/2003 12:00 a 73.4 70.7 70.7 70.8 70.5 92 68.3 0.0 0.0 --- 0.00 29.835
08/16/2003 12:30 a 72.4 70.4 70.4 70.6 70.2 92 68.0 0.0 0.0 --- 0.00 29.824
08/16/2003 1:00 a 72.6 69.9 69.9 70.2 69.6 93 67.8 0.0 0.0 --- 0.00 29.819
08/16/2003 1:30 a 71.4 69.3 69.3 69.6 69.1 94 67.5 0.0 0.0 --- 0.00 29.812
08/16/2003 2:00 a 71.4 68.9 68.9 69.1 68.8 94 67.1 0.0 0.0 --- 0.00 29.805
08/16/2003 2:30 a 71.5 68.8 68.8 68.9 68.7 95 67.3 0.0 0.0 --- 0.00 29.798
08/16/2003 3:00 a 71.5 68.8 68.8 68.9 68.7 95 67.3 0.0 0.0 --- 0.00 29.784
08/16/2003 3:30 a 71.5 68.8 68.8 68.9 68.7 95 67.3 0.0 0.0 --- 0.00 29.774
08/16/2003 4:00 a 71.5 68.5 68.5 68.7 68.2 95 67.0 0.0 0.0 --- 0.00 29.759
08/16/2003 4:30 a 70.0 68.3 68.3 68.4 68.2 95 66.8 0.0 0.0 --- 0.00 29.754
08/16/2003 5:00 a 70.0 68.2 68.2 68.3 68.0 96 67.0 0.0 0.0 --- 0.00 29.748
08/16/2003 5:30 a 67.9 67.9 67.9 68.0 67.8 96 66.7 0.0 0.0 --- 0.00 29.747
08/16/2003 6:00 a 67.9 67.9 67.9 68.0 67.8 96 66.7 0.0 0.0 --- 0.00 29.752
08/16/2003 6:30 a 67.9 67.9 67.9 68.0 67.8 96 66.7 0.0 0.0 --- 0.00 29.737
08/16/2003 7:00 a 70.0 68.3 68.3 68.7 67.9 96 67.1 0.0 0.0 --- 0.00 29.736
08/16/2003 7:30 a 71.5 69.0 69.0 69.8 68.6 95 67.5 0.0 0.0 --- 0.00 29.730
08/16/2003 8:00 a 73.2 71.3 71.3 72.1 69.8 91 68.5 0.0 0.0 --- 0.00 29.735
08/16/2003 8:30 a 75.0 72.7 72.7 73.7 72.1 87 68.6 0.0 0.0 --- 0.00 29.731
08/16/2003 9:00 a 78.7 75.6 75.6 78.0 73.7 77 67.9 0.0 0.0 --- 0.00 29.722
08/16/2003 9:30 a 81.6 77.9 77.9 78.2 77.7 78 70.5 0.0 0.0 --- 0.00 29.717
08/16/2003 10:00 a 81.4 78.0 78.0 78.2 77.7 77 70.2 0.0 0.0 --- 0.00 29.718
08/16/2003 10:30 a 82.6 80.4 80.4 84.4 77.8 66 68.0 0.0 1.0 --- 0.00 29.715
08/16/2003 11:00 a 91.8 84.5 84.5 85.7 83.5 67 72.3 0.0 1.0 --- 0.00 29.714
08/16/2003 11:30 a 89.4 83.8 83.8 85.1 83.3 66 71.2 0.0 1.0 S 0.00 29.707
08/16/2003 12:00 p 91.4 86.3 86.3 87.1 85.2 61 71.3 0.0 1.0 NE 0.00 29.699
08/16/2003 12:30 p 94.2 87.1 87.1 87.6 86.6 63 73.0 0.0 1.0 NW 0.00 29.699
08/16/2003 1:00 p 93.0 85.6 85.6 86.6 85.0 65 72.5 0.0 1.0 SSW 0.00 29.682
08/16/2003 1:30 p 96.1 89.0 89.0 91.0 85.1 57 71.8 0.0 1.0 SSE 0.00 29.669
08/16/2003 2:00 p 99.6 89.5 89.5 90.3 87.4 61 74.3 0.0 2.0 SSW 0.00 29.662
08/16/2003 2:30 p 93.0 86.2 86.2 87.4 84.9 65 73.1 0.0 2.0 S 0.00 29.655
08/16/2003 3:00 p 89.4 84.0 84.0 84.9 83.3 66 71.4 0.0 2.0 SSW 0.00 29.638
08/16/2003 3:30 p 87.8 82.6 82.6 83.2 82.3 67 70.5 0.0 1.0 SSE 0.00 29.627
08/16/2003 4:00 p 86.4 81.9 81.9 82.4 81.3 68 70.3 0.0 2.0 S 0.00 29.633
08/16/2003 4:30 p 84.8 80.9 80.9 81.3 80.6 69 69.8 0.0 2.0 --- 0.00 29.635
08/16/2003 5:00 p 83.0 80.1 80.1 80.6 79.6 70 69.4 0.0 1.0 SSW 0.00 29.626
08/16/2003 5:30 p 82.0 79.1 79.1 79.6 78.4 75 70.5 0.0 0.0 --- 0.00 29.622
08/16/2003 6:00 p 81.6 77.7 77.7 78.4 77.0 78 70.3 0.0 0.0 --- 0.00 29.619
08/16/2003 6:30 p 81.0 76.8 76.8 77.0 76.4 80 70.2 0.0 1.0 --- 0.00 29.615
08/16/2003 7:00 p 78.9 76.3 76.3 76.5 76.1 79 69.3 0.0 0.0 --- 0.00 29.627
08/16/2003 7:30 p 79.2 76.2 76.2 76.4 75.8 82 70.3 0.0 0.0 --- 0.00 29.622
08/16/2003 8:00 p 77.5 75.1 75.1 75.9 74.3 85 70.3 0.0 0.0 --- 0.00 29.615
08/16/2003 8:30 p 76.0 73.6 73.6 74.3 73.1 88 69.8 0.0 0.0 --- 0.00 29.599
08/16/2003 9:00 p 75.0 72.7 72.7 73.1 72.3 90 69.6 0.0 0.0 --- 0.00 29.624
08/16/2003 9:30 p 74.2 72.1 72.1 72.5 71.8 91 69.3 0.0 0.0 --- 0.00 29.639
08/16/2003 10:00 p 74.2 71.8 71.8 72.2 71.5 91 69.0 0.0 1.0 SSE 0.00 29.643
08/16/2003 10:30 p 74.6 71.7 71.7 72.2 70.9 93 69.6 0.0 0.0 --- 0.00 29.630
08/16/2003 11:00 p 73.8 70.5 70.5 70.9 70.1 94 68.7 0.0 0.0 --- 0.00 29.624
08/16/2003 11:30 p 73.0 69.9 69.9 70.1 69.8 95 68.4 0.0 0.0 --- 0.00 29.624
08/17/2003 12:00 a 73.0 70.0 70.0 70.3 69.8 95 68.5 0.0 0.0 --- 0.00 29.648
08/17/2003 12:30 a 73.0 70.3 70.3 70.4 70.3 95 68.8 0.0 0.0 --- 0.00 29.644
08/17/2003 1:00 a 73.0 70.4 70.4 70.5 70.3 95 68.9 0.0 0.0 --- 0.00 29.630
08/17/2003 1:30 a 73.0 70.3 70.3 70.3 70.1 95 68.8 0.0 0.0 --- 0.00 29.619
08/17/2003 2:00 a 73.0 69.9 69.9 70.1 69.6 95 68.4 0.0 0.0 --- 0.00 29.611
08/17/2003 2:30 a 73.0 69.6 69.6 69.8 69.5 95 68.1 0.0 0.0 --- 0.00 29.617
08/17/2003 3:00 a 71.5 69.4 69.4 69.8 69.2 95 67.9 0.0 0.0 --- 0.00 29.623
08/17/2003 3:30 a 71.4 69.1 69.1 69.2 69.0 94 67.3 0.0 0.0 --- 0.00 29.624
08/17/2003 4:00 a 71.5 68.8 68.8 69.0 68.7 95 67.3 0.0 0.0 --- 0.00 29.632
08/17/2003 4:30 a 71.5 68.6 68.6 68.7 68.5 95 67.1 0.0 0.0 --- 0.00 29.641
08/17/2003 5:00 a 71.4 68.7 68.7 68.8 68.6 94 66.9 0.0 0.0 --- 0.00 29.637
08/17/2003 5:30 a 71.4 68.7 68.7 68.8 68.6 94 66.9 0.0 0.0 --- 0.00 29.643
08/17/2003 6:00 a 71.5 68.5 68.5 68.6 68.3 95 67.0 0.0 0.0 --- 0.00 29.651
08/17/2003 6:30 a 70.0 68.4 68.4 68.5 68.4 95 66.9 0.0 0.0 --- 0.00 29.658
08/17/2003 7:00 a 71.6 68.6 68.6 68.7 68.5 96 67.4 0.0 0.0 --- 0.00 29.658
08/17/2003 7:30 a 71.7 68.8 68.8 68.9 68.7 97 67.9 0.0 0.0 --- 0.01 29.674
08/17/2003 8:00 a 71.8 69.0 69.0 69.2 68.8 98 68.4 0.0 0.0 --- 0.01 29.683
08/17/2003 8:30 a 73.6 69.5 69.5 69.7 69.2 98 68.9 0.0 0.0 --- 0.01 29.679
08/17/2003 9:00 a 73.6 69.9 69.9 70.3 69.6 98 69.3 0.0 0.0 --- 0.00 29.684
08/17/2003 9:30 a 74.6 70.8 70.8 71.4 70.3 98 70.2 0.0 0.0 --- 0.00 29.691
08/17/2003 10:00 a 76.4 72.9 72.9 73.3 71.4 97 72.0 0.0 1.0 --- 0.00 29.695
08/17/2003 10:30 a 77.0 73.8 73.8 74.6 72.8 95 72.3 0.0 1.0 --- 0.00 29.697
08/17/2003 11:00 a 78.4 74.9 74.9 75.8 74.3 94 73.1 0.0 1.0 --- 0.00 29.695
08/17/2003 11:30 a 80.0 75.8 75.8 76.3 75.4 91 73.0 0.0 2.0 SE 0.00 29.693
08/17/2003 12:00 p 81.0 77.1 77.1 78.1 76.1 89 73.6 0.0 1.0 SE 0.00 29.697
08/17/2003 12:30 p 84.6 78.9 78.9 79.4 78.1 88 75.0 0.0 1.0 SE 0.00 29.694
08/17/2003 1:00 p 89.4 83.3 83.3 89.0 79.1 72 73.3 0.0 1.0 N 0.00 29.695
08/17/2003 1:30 p 87.4 82.1 82.1 85.8 80.3 72 72.2 0.0 1.0 --- 0.00 29.696
08/17/2003 2:00 p 92.9 87.8 87.8 92.0 82.3 53 68.6 0.0 1.0 NNE 0.00 29.696
08/17/2003 2:30 p 95.2 88.9 88.9 92.5 83.8 54 70.1 0.0 1.0 E 0.00 29.693
08/17/2003 3:00 p 92.7 87.4 87.4 90.0 85.1 59 71.3 0.0 1.0 E 0.00 29.680
08/17/2003 3:30 p 86.8 84.2 84.2 85.3 83.4 58 67.8 0.0 1.0 ENE 0.00 29.671
08/17/2003 4:00 p 86.7 84.1 84.1 84.8 83.6 57 67.2 0.0 1.0 --- 0.00 29.668
08/17/2003 4:30 p 86.9 83.5 83.5 84.1 82.0 59 67.7 0.0 1.0 ENE 0.00 29.682
08/18/2003 2:26 p 81.0 81.4 81.4 94.6 59.7 47 59.3 0.0 3.0 --- 0.00 29.906
08/18/2003 2:30 p 92.0 88.3 88.3 88.7 87.5 50 67.3 0.0 1.0 NNW 0.00 29.905
08/18/2003 3:00 p 84.8 80.5 80.5 87.4 76.5 69 69.4 0.0 2.0 NNW 0.00 29.896
08/18/2003 3:30 p 76.6 72.5 72.5 76.5 67.9 98 71.9 0.0 1.0 --- 0.22 29.909
08/18/2003 4:00 p 71.9 68.8 68.8 70.7 67.7 99 68.5 0.0 0.0 --- 0.08 29.896
08/18/2003 4:30 p 76.8 72.6 72.6 74.0 70.7 99 72.3 0.0 1.0 --- 0.00 29.903
08/18/2003 5:00 p 77.6 73.7 73.7 74.3 72.6 98 73.1 0.0 0.0 --- 0.00 29.910
08/18/2003 5:30 p 76.4 73.3 73.3 73.7 72.5 97 72.4 0.0 1.0 --- 0.00 29.906
08/18/2003 6:00 p 75.4 72.4 72.4 73.1 72.1 97 71.5 0.0 2.0 NNW 0.00 29.908
08/18/2003 6:30 p 75.2 72.4 72.4 72.5 72.2 96 71.2 0.0 2.0 NNW 0.00 29.915
08/18/2003 7:00 p 75.0 71.8 71.8 72.2 71.5 95 70.3 0.0 2.0 NNW 0.00 29.925
08/18/2003 7:30 p 74.0 71.0 71.0 71.5 70.0 95 69.5 0.0 1.0 NNW 0.00 29.931
08/18/2003 8:00 p 71.7 69.0 69.0 70.0 68.3 97 68.1 0.0 0.0 --- 0.00 29.946
08/18/2003 8:30 p 67.7 67.7 67.7 68.3 67.4 97 66.8 0.0 0.0 --- 0.00 29.955
08/18/2003 9:00 p 67.1 67.1 67.1 67.5 66.8 98 66.5 0.0 0.0 --- 0.00 29.972
08/18/2003 9:30 p 66.6 66.6 66.6 66.9 66.2 97 65.7 0.0 0.0 --- 0.00 29.980
08/18/2003 10:00 p 65.9 65.9 65.9 66.2 65.6 98 65.3 0.0 0.0 --- 0.00 29.980
08/18/2003 10:30 p 65.3 65.3 65.3 65.6 65.3 98 64.7 0.0 0.0 --- 0.00 29.981
08/18/2003 11:00 p 65.3 65.3 65.3 65.3 65.0 98 64.7 0.0 0.0 --- 0.00 29.982
08/18/2003 11:30 p 64.7 64.7 64.7 65.0 64.4 98 64.1 0.0 0.0 --- 0.00 29.985
08/19/2003 12:00 a 64.3 64.3 64.3 64.5 64.2 99 64.0 0.0 0.0 --- 0.00 29.993
08/19/2003 12:30 a 64.0 64.0 64.0 64.2 63.7 98 63.4 0.0 0.0 --- 0.00 29.987
08/19/2003 1:00 a 63.6 63.6 63.6 63.7 63.6 99 63.3 0.0 0.0 --- 0.00 29.987
08/19/2003 1:30 a 63.6 63.6 63.6 63.7 63.6 98 63.0 0.0 0.0 --- 0.00 29.983
08/19/2003 2:00 a 64.0 64.0 64.0 64.4 63.6 98 63.4 0.0 0.0 --- 0.00 29.985
08/19/2003 2:30 a 64.5 64.5 64.5 64.7 64.4 98 63.9 0.0 0.0 --- 0.00 29.987
08/19/2003 3:00 a 64.3 64.3 64.3 64.6 63.9 98 63.7 0.0 0.0 --- 0.00 29.988
08/19/2003 3:30 a 63.5 63.5 63.5 64.0 63.2 99 63.2 0.0 0.0 --- 0.00 29.989
08/19/2003 4:00 a 63.2 63.2 63.2 63.2 63.1 99 62.9 0.0 0.0 --- 0.00 29.993
08/19/2003 4:30 a 63.3 63.3 63.3 63.4 63.0 99 63.0 0.0 0.0 --- 0.00 29.991
08/19/2003 5:00 a 62.7 62.7 62.7 63.0 62.4 98 62.1 0.0 0.0 --- 0.00 29.988
08/19/2003 5:30 a 62.3 62.3 62.3 62.5 62.0 98 61.7 0.0 0.0 --- 0.00 29.995
08/19/2003 6:00 a 61.8 61.8 61.8 62.0 61.5 99 61.5 0.0 0.0 --- 0.00 30.000
08/19/2003 6:30 a 61.5 61.5 61.5 61.7 61.4 98 60.9 0.0 0.0 --- 0.00 30.003
08/19/2003 7:00 a 61.6 61.6 61.6 61.7 61.4 99 61.3 0.0 0.0 --- 0.00 30.019
08/19/2003 7:30 a 62.4 62.4 62.4 63.1 61.7 99 62.1 0.0 0.0 --- 0.00 30.021
08/19/2003 8:00 a 64.3 64.3 64.3 65.6 63.1 99 64.0 0.0 0.0 --- 0.00 30.028
08/19/2003 8:30 a 66.6 66.6 66.6 67.6 65.6 98 66.0 0.0 0.0 --- 0.00 30.037
08/19/2003 9:00 a 71.4 68.9 68.9 71.3 67.6 94 67.1 0.0 1.0 NNW 0.00 30.036
08/19/2003 9:30 a 76.0 73.8 73.8 75.0 71.3 89 70.4 0.0 0.0 --- 0.00 30.034
08/19/2003 10:00 a 76.0 74.4 74.4 75.0 74.0 87 70.3 0.0 0.0 --- 0.00 30.030
08/19/2003 10:30 a 79.5 77.7 77.7 83.8 75.0 65 65.0 0.0 0.0 --- 0.00 30.031
08/19/2003 11:00 a 83.0 79.7 79.7 84.1 77.6 70 69.1 0.0 0.0 --- 0.00 30.029
08/19/2003 11:30 a 79.6 77.9 77.9 78.4 77.6 66 65.6 0.0 0.0 --- 0.00 30.020
08/19/2003 12:00 p 81.0 78.8 78.8 79.3 78.0 65 66.1 0.0 0.0 --- 0.00 30.016
08/19/2003 12:30 p 81.8 80.1 80.1 81.9 78.0 59 64.5 0.0 2.0 NNW 0.00 30.014
08/19/2003 1:00 p 89.1 86.8 86.8 92.3 81.9 47 64.2 0.0 1.0 NW 0.00 30.012
08/19/2003 1:30 p 96.4 93.9 93.9 95.9 87.5 36 62.9 0.0 1.0 WNW 0.00 30.003
08/19/2003 2:00 p 97.8 96.4 96.4 97.0 95.5 32 61.8 0.0 2.0 ENE 0.00 30.002
08/19/2003 2:30 p 101.5 97.6 97.6 99.0 94.4 33 63.7 0.0 1.0 --- 0.00 29.997
08/19/2003 3:00 p 91.2 87.8 87.8 94.3 85.8 48 65.7 0.0 1.0 SSE 0.00 29.988
08/19/2003 3:30 p 87.0 85.6 85.6 85.8 85.2 45 61.8 0.0 2.0 SSE 0.00 29.985
08/19/2003 4:00 p 86.8 84.9 84.9 85.2 84.6 49 63.6 0.0 2.0 SSE 0.00 29.976
08/19/2003 4:30 p 86.6 84.6 84.6 85.0 84.3 48 62.8 0.0 1.0 SSE 0.00 29.969
08/19/2003 5:00 p 86.0 83.7 83.7 84.3 83.2 50 63.1 0.0 1.0 SSE 0.00 29.972
08/19/2003 5:30 p 85.0 82.5 82.5 83.2 81.5 53 63.7 0.0 0.0 --- 0.00 29.976
08/19/2003 6:00 p 82.4 80.6 80.6 81.5 79.5 57 64.0 0.0 0.0 --- 0.00 29.974
08/19/2003 6:30 p 81.0 78.9 78.9 79.5 78.0 60 63.8 0.0 0.0 --- 0.00 29.973
08/19/2003 7:00 p 77.8 77.0 77.0 78.0 76.2 64 63.9 0.0 0.0 --- 0.00 29.971
08/19/2003 7:30 p 77.0 75.4 75.4 76.2 74.5 70 64.9 0.0 0.0 --- 0.00 29.977
08/19/2003 8:00 p 76.0 73.5 73.5 74.5 72.7 72 63.9 0.0 0.0 --- 0.00 29.978
08/19/2003 8:30 p 73.4 71.7 71.7 72.7 70.8 77 64.1 0.0 0.0 --- 0.00 29.985
08/19/2003 9:00 p 73.0 70.9 70.9 71.0 70.8 81 64.8 0.0 0.0 --- 0.00 29.994
08/19/2003 9:30 p 73.0 70.9 70.9 71.1 70.7 84 65.8 0.0 0.0 --- 0.00 29.998
08/19/2003 10:00 p 72.0 70.2 70.2 70.7 69.9 87 66.2 0.0 0.0 --- 0.00 29.996
08/19/2003 10:30 p 72.0 69.7 69.7 69.9 69.6 89 66.3 0.0 0.0 --- 0.00 30.000
08/19/2003 11:00 p 71.1 69.2 69.2 69.6 68.8 91 66.5 0.0 0.0 --- 0.00 30.000
08/19/2003 11:30 p 70.0 68.4 68.4 68.8 68.1 93 66.3 0.0 0.0 --- 0.00 30.005
08/20/2003 12:00 a 70.0 68.0 68.0 68.1 67.8 93 65.9 0.0 0.0 --- 0.00 30.012
08/20/2003 12:30 a 67.6 67.6 67.6 67.9 67.3 94 65.8 0.0 0.0 --- 0.00 30.011
08/20/2003 1:00 a 67.3 67.3 67.3 67.5 67.0 95 65.8 0.0 0.0 --- 0.00 30.011
08/20/2003 1:30 a 66.7 66.7 66.7 67.0 66.5 95 65.2 0.0 0.0 --- 0.00 30.007
08/20/2003 2:00 a 66.3 66.3 66.3 66.5 66.2 96 65.1 0.0 0.0 --- 0.00 30.009
08/20/2003 2:30 a 66.0 66.0 66.0 66.2 65.7 96 64.8 0.0 0.0 --- 0.00 30.007
08/20/2003 3:00 a 65.6 65.6 65.6 65.7 65.4 96 64.4 0.0 0.0 --- 0.00 30.013
08/20/2003 3:30 a 65.4 65.4 65.4 65.5 65.3 95 63.9 0.0 0.0 --- 0.00 30.009
08/20/2003 4:00 a 65.3 65.3 65.3 65.4 65.3 96 64.1 0.0 0.0 --- 0.00 29.999
08/20/2003 4:30 a 65.4 65.4 65.4 65.5 65.3 96 64.2 0.0 0.0 --- 0.00 30.002
08/20/2003 5:00 a 65.4 65.4 65.4 65.6 65.3 96 64.2 0.0 0.0 --- 0.00 30.004
08/20/2003 5:30 a 65.1 65.1 65.1 65.3 64.8 96 63.9 0.0 0.0 --- 0.00 30.003
08/20/2003 6:00 a 64.6 64.6 64.6 64.8 64.4 96 63.4 0.0 0.0 --- 0.00 30.003
08/20/2003 6:30 a 64.0 64.0 64.0 64.4 63.7 97 63.1 0.0 0.0 --- 0.00 30.006
08/20/2003 7:00 a 63.9 63.9 63.9 64.2 63.7 97 63.0 0.0 0.0 --- 0.00 30.020
08/20/2003 7:30 a 64.8 64.8 64.8 65.5 64.2 96 63.6 0.0 0.0 --- 0.00 30.019
08/20/2003 8:00 a 66.2 66.2 66.2 67.1 65.4 93 64.1 0.0 0.0 --- 0.00 30.016
08/20/2003 8:30 a 70.0 68.1 68.1 69.1 67.1 88 64.4 0.0 0.0 --- 0.00 30.009
08/20/2003 9:00 a 73.0 70.8 70.8 73.7 69.1 80 64.3 0.0 0.0 --- 0.00 30.010
08/20/2003 9:30 a 78.8 76.7 76.7 78.5 73.7 69 65.8 0.0 1.0 --- 0.00 30.012
08/20/2003 10:00 a 78.2 77.4 77.4 77.9 77.0 66 65.2 0.0 0.0 --- 0.00 30.014
08/20/2003 10:30 a 81.2 81.3 81.3 87.1 77.9 51 61.5 0.0 0.0 --- 0.00 30.013
08/20/2003 11:00 a 84.6 82.3 82.3 87.2 80.4 62 68.0 0.0 1.0 ESE 0.00 30.008
08/20/2003 11:30 a 82.6 80.7 80.7 81.1 80.4 58 64.6 0.0 2.0 ENE 0.00 30.001
08/20/2003 12:00 p 83.6 81.7 81.7 82.3 81.1 56 64.5 0.0 0.0 --- 0.00 29.991
08/20/2003 12:30 p 85.0 83.0 83.0 83.9 82.3 55 65.2 0.0 1.0 SSE 0.00 29.983
08/20/2003 1:00 p 93.9 92.5 92.5 99.9 83.9 33 59.2 0.0 1.0 E 0.00 29.976
08/20/2003 1:30 p 103.8 100.9 100.9 101.8 99.9 28 61.8 0.0 1.0 ENE 0.00 29.973
08/20/2003 2:00 p 104.4 100.6 100.6 101.2 99.9 29 62.6 0.0 2.0 SE 0.00 29.969
08/20/2003 2:30 p 101.5 98.0 98.0 100.1 96.2 33 64.0 0.0 1.0 SE 0.00 29.965
08/20/2003 3:00 p 94.2 91.4 91.4 96.4 88.7 44 66.4 0.0 1.0 ENE 0.00 29.950
08/20/2003 3:30 p 91.2 88.2 88.2 88.7 87.9 48 66.1 0.0 1.0 E 0.00 29.946
08/20/2003 4:00 p 91.6 88.1 88.1 88.4 87.9 49 66.6 0.0 1.0 NNE 0.00 29.939
08/20/2003 4:30 p 91.2 86.5 86.5 87.9 86.1 54 67.9 0.0 1.0 --- 0.00 29.929
08/20/2003 5:00 p 88.9 86.1 86.1 86.4 85.1 53 67.0 0.0 1.0 NNE 0.00 29.924
08/20/2003 5:30 p 87.4 84.6 84.6 85.1 83.8 52 65.1 0.0 0.0 --- 0.00 29.928
08/20/2003 6:00 p 85.0 83.2 83.2 83.9 82.5 57 66.4 0.0 1.0 --- 0.00 29.929
08/20/2003 6:30 p 83.8 81.8 81.8 82.5 81.1 58 65.6 0.0 0.0 --- 0.00 29.925
08/20/2003 7:00 p 81.8 80.4 80.4 81.1 79.4 59 64.8 0.0 1.0 --- 0.00 29.925
08/20/2003 7:30 p 80.0 78.3 78.3 79.4 76.8 70 67.7 0.0 0.0 --- 0.00 29.925
08/20/2003 8:00 p 78.4 75.7 75.7 76.8 74.6 74 66.8 0.0 0.0 --- 0.00 29.925
08/20/2003 8:30 p 76.0 73.6 73.6 74.6 72.7 77 66.0 0.0 0.0 --- 0.00 29.933
08/20/2003 9:00 p 74.0 72.2 72.2 72.7 71.6 81 66.1 0.0 0.0 --- 0.00 29.946
08/20/2003 9:30 p 73.0 71.2 71.2 71.6 70.8 84 66.1 0.0 0.0 --- 0.00 29.949
08/20/2003 10:00 p 72.0 70.3 70.3 70.8 69.9 86 65.9 0.0 0.0 --- 0.00 29.943
08/20/2003 10:30 p 72.0 69.6 69.6 69.9 69.3 88 65.9 0.0 0.0 --- 0.00 29.940
08/20/2003 11:00 p 71.0 69.1 69.1 69.3 68.8 89 65.7 0.0 0.0 --- 0.00 29.943
08/21/2003 5:30 a 67.4 67.4 67.4 67.5 67.2 1 -36.5 0.0 0.0 --- 0.00 0.875
08/21/2003 6:00 a 67.2 67.2 67.2 67.4 67.0 96 66.0 0.0 0.0 --- 0.00 29.946
08/21/2003 6:30 a 66.9 66.9 66.9 67.0 66.8 96 65.7 0.0 0.0 --- 0.00 29.948
08/21/2003 7:00 a 66.9 66.9 66.9 67.2 66.7 96 65.7 0.0 0.0 --- 0.00 29.945
08/21/2003 7:30 a 67.7 67.7 67.7 68.3 67.1 96 66.5 0.0 0.0 --- 0.00 29.945
08/21/2003 8:00 a 71.6 69.2 69.2 70.3 68.3 96 68.0 0.0 0.0 --- 0.00 29.947
08/21/2003 8:30 a 73.6 71.3 71.3 72.3 70.3 93 69.2 0.0 0.0 --- 0.00 29.935
08/21/2003 9:00 a 75.0 73.4 73.4 75.1 72.3 87 69.3 0.0 0.0 --- 0.00 29.932
08/21/2003 9:30 a 81.6 78.0 78.0 78.7 75.2 78 70.6 0.0 0.0 --- 0.00 29.920
08/21/2003 10:00 a 82.4 79.3 79.3 79.9 78.6 77 71.5 0.0 0.0 --- 0.00 29.909
08/21/2003 10:30 a 85.8 82.8 82.8 86.9 79.9 62 68.5 0.0 0.0 --- 0.00 29.900
08/21/2003 11:00 a 91.3 84.0 84.0 87.0 82.6 71 73.6 0.0 1.0 N 0.00 29.885
08/21/2003 3:30 p 96.2 90.2 90.2 91.0 89.3 53 70.8 0.0 1.0 --- 0.00 29.824
08/21/2003 4:00 p 95.8 89.7 89.7 90.2 89.3 52 69.7 0.0 1.0 --- 0.00 29.822
08/21/2003 4:30 p 94.9 89.1 89.1 89.4 88.8 53 69.8 0.0 1.0 --- 0.00 29.806
08/21/2003 5:00 p 94.1 88.2 88.2 88.9 87.7 57 71.1 0.0 0.0 --- 0.00 29.804
08/21/2003 5:30 p 93.4 87.1 87.1 87.7 86.4 61 72.0 0.0 0.0 --- 0.00 29.799
08/21/2003 6:00 p 90.6 85.4 85.4 86.4 84.6 64 71.8 0.0 0.0 --- 0.00 29.788
08/21/2003 6:30 p 89.4 83.7 83.7 84.6 82.9 66 71.1 0.0 0.0 --- 0.00 29.782
08/21/2003 7:00 p 87.0 82.0 82.0 82.9 81.3 70 71.3 0.0 0.0 --- 0.00 29.780
08/21/2003 7:30 p 86.0 80.6 80.6 81.4 79.7 75 71.9 0.0 0.0 --- 0.00 29.775
08/21/2003 8:00 p 82.8 78.8 78.8 79.7 77.8 79 71.7 0.0 0.0 --- 0.00 29.770
08/21/2003 8:30 p 81.0 77.3 77.3 77.8 77.0 80 70.7 0.0 0.0 --- 0.00 29.776
08/21/2003 9:00 p 80.8 77.0 77.0 77.1 77.0 79 70.0 0.0 0.0 --- 0.00 29.779
08/21/2003 9:30 p 81.0 76.6 76.6 77.0 76.4 82 70.7 0.0 0.0 --- 0.00 29.786
08/21/2003 10:00 p 79.3 76.1 76.1 76.5 75.6 83 70.6 0.0 0.0 --- 0.00 29.782
08/21/2003 10:30 p 77.4 75.3 75.3 75.6 74.8 84 70.1 0.0 0.0 --- 0.00 29.787
08/21/2003 11:00 p 76.0 74.4 74.4 74.8 74.1 86 69.9 0.0 0.0 --- 0.00 29.776
08/21/2003 11:30 p 76.0 74.1 74.1 74.2 74.0 85 69.3 0.0 0.0 --- 0.00 29.765
08/22/2003 12:00 a 76.0 73.7 73.7 74.0 73.4 87 69.6 0.0 0.0 --- 0.00 29.770
08/22/2003 12:30 a 75.0 72.9 72.9 73.4 72.7 90 69.8 0.0 0.0 --- 0.00 29.784
08/22/2003 1:00 a 74.2 72.4 72.4 72.7 72.0 91 69.6 0.0 0.0 --- 0.00 29.782
08/22/2003 1:30 a 74.6 71.7 71.7 72.0 71.4 93 69.6 0.0 0.0 --- 0.00 29.782
08/22/2003 2:00 a 73.8 71.3 71.3 71.4 71.1 94 69.5 0.0 0.0 --- 0.00 29.780
08/22/2003 2:30 a 74.0 70.9 70.9 71.1 70.8 95 69.4 0.0 0.0 --- 0.00 29.781
08/22/2003 3:00 a 74.0 71.0 71.0 71.1 70.9 95 69.5 0.0 0.0 --- 0.00 29.771
08/22/2003 3:30 a 74.0 70.8 70.8 70.9 70.7 95 69.3 0.0 0.0 --- 0.00 29.760
08/22/2003 4:00 a 74.2 70.6 70.6 70.8 70.5 96 69.4 0.0 0.0 --- 0.00 29.751
08/22/2003 4:30 a 73.2 70.4 70.4 70.5 70.3 96 69.2 0.0 0.0 --- 0.00 29.743
08/22/2003 5:00 a 73.2 70.3 70.3 70.4 70.3 96 69.1 0.0 0.0 --- 0.00 29.744
08/22/2003 5:30 a 73.2 70.3 70.3 70.4 70.2 96 69.1 0.0 0.0 --- 0.00 29.744
08/22/2003 6:00 a 74.4 70.8 70.8 71.0 70.2 97 69.9 0.0 0.0 --- 0.00 29.736
08/22/2003 6:30 a 74.4 70.9 70.9 71.3 70.8 97 70.0 0.0 0.0 --- 0.00 29.741
08/22/2003 7:00 a 75.4 72.1 72.1 72.8 71.3 97 71.2 0.0 0.0 --- 0.00 29.753
08/22/2003 7:30 a 76.0 73.4 73.4 73.9 72.8 95 71.9 0.0 0.0 --- 0.00 29.760
08/22/2003 8:00 a 76.8 74.1 74.1 74.1 73.9 94 72.3 0.0 0.0 --- 0.00 29.748
08/22/2003 8:30 a 76.6 74.4 74.4 75.1 74.1 93 72.2 0.0 0.0 --- 0.00 29.731
08/22/2003 9:00 a 79.8 76.3 76.3 77.5 75.1 88 72.5 0.0 0.0 --- 0.00 29.724
08/22/2003 9:30 a 85.2 80.1 80.1 81.2 77.6 81 73.7 0.0 0.0 --- 0.00 29.724
08/22/2003 10:00 a 86.6 81.4 81.4 82.1 80.7 78 73.9 0.0 0.0 --- 0.00 29.710
08/22/2003 10:30 a 91.8 85.0 85.0 88.2 82.1 67 72.8 0.0 0.0 --- 0.00 29.700
08/22/2003 11:00 a 95.8 86.2 86.2 88.4 85.2 72 76.1 0.0 3.0 NW 0.00 29.692
08/22/2003 11:30 a 95.4 85.8 85.8 86.6 85.2 71 75.3 0.0 1.0 NW 0.00 29.691
08/22/2003 12:00 p 97.8 87.6 87.6 88.4 86.6 67 75.3 0.0 2.0 WNW 0.00 29.681
08/22/2003 12:30 p 99.0 89.1 89.1 89.8 88.4 64 75.3 0.0 2.0 S 0.00 29.675
08/22/2003 1:00 p 102.8 93.6 93.6 97.5 89.7 51 72.8 0.0 2.0 SSE 0.00 29.667
08/22/2003 1:30 p 114.2 98.1 98.1 99.5 96.4 51 76.9 0.0 3.0 SE 0.00 29.655
08/22/2003 2:00 p 112.2 98.3 98.3 99.4 97.3 49 75.9 0.0 4.0 N 0.00 29.643
08/22/2003 2:30 p 111.5 98.8 98.8 100.3 96.6 45 73.8 0.0 2.0 S 0.00 29.630
08/22/2003 3:00 p 109.2 93.7 93.7 98.0 91.4 59 77.2 0.0 4.0 S 0.00 29.623
08/22/2003 3:30 p 101.0 91.9 91.9 92.2 91.4 55 73.4 0.0 2.0 SSE 0.00 29.622
08/22/2003 4:00 p 99.5 91.1 91.1 91.8 90.4 57 73.8 0.0 2.0 SE 0.00 29.626
08/22/2003 4:30 p 97.8 90.3 90.3 91.0 89.9 57 73.0 0.0 2.0 ENE 0.00 29.615
08/22/2003 5:00 p 100.2 90.0 90.0 90.5 89.2 62 75.2 0.0 1.0 SSE 0.00 29.602
08/22/2003 5:30 p 99.0 88.8 88.8 89.2 88.1 64 75.1 0.0 1.0 SE 0.00 29.594
08/22/2003 6:00 p 96.2 87.1 87.1 88.1 86.3 68 75.3 0.0 1.0 --- 0.00 29.594
08/22/2003 6:30 p 93.8 85.2 85.2 86.3 84.4 72 75.2 0.0 0.0 --- 0.00 29.607
08/22/2003 7:00 p 91.9 84.2 84.2 84.4 83.9 73 74.6 0.0 0.0 --- 0.00 29.606
08/22/2003 7:30 p 90.2 83.2 83.2 83.9 82.8 76 74.9 0.0 0.0 --- 0.00 29.604
08/22/2003 8:00 p 88.4 82.4 82.4 82.8 81.8 77 74.5 0.0 0.0 --- 0.00 29.606
08/22/2003 8:30 p 88.6 81.7 81.7 81.8 81.5 78 74.2 0.0 0.0 --- 0.00 29.615
08/22/2003 9:00 p 87.2 81.1 81.1 81.5 80.4 81 74.7 0.0 0.0 --- 0.00 29.642
08/22/2003 9:30 p 86.4 81.0 81.0 81.8 80.4 77 73.1 0.0 0.0 --- 0.00 29.652
08/22/2003 10:00 p 86.2 81.4 81.4 81.9 80.8 76 73.1 0.0 0.0 --- 0.00 29.649
08/22/2003 10:30 p 84.8 80.1 80.1 80.8 79.0 79 73.0 0.0 0.0 --- 0.00 29.663
08/22/2003 11:00 p 82.1 78.3 78.3 79.0 78.0 81 72.0 0.0 0.0 --- 0.00 29.670
08/22/2003 11:30 p 81.2 78.4 78.4 78.6 78.0 76 70.2 0.0 0.0 --- 0.00 29.669
08/23/2003 12:00 a 81.0 78.7 78.7 78.9 78.4 66 66.4 0.0 2.0 ESE 0.00 29.675
08/23/2003 12:30 a 79.4 78.2 78.2 78.8 77.6 64 65.0 0.0 3.0 ESE 0.00 29.678
08/23/2003 1:00 a 78.0 76.9 76.9 77.6 76.3 65 64.3 0.0 2.0 ESE 0.00 29.680
08/23/2003 1:30 a 76.4 75.7 75.7 76.3 75.2 62 61.8 0.0 1.0 ESE 0.00 29.675
08/23/2003 2:00 a 75.8 74.6 74.6 75.2 74.1 64 61.6 0.0 2.0 ESE 0.00 29.675
08/23/2003 2:30 a 75.6 73.5 73.5 74.1 72.8 68 62.3 0.0 2.0 ESE 0.00 29.675
08/23/2003 3:00 a 72.0 72.4 72.4 72.8 72.1 63 59.1 0.0 2.0 ESE 0.00 29.684
08/23/2003 3:30 a 71.0 71.1 71.1 72.2 69.7 69 60.4 0.0 1.0 ESE 0.00 29.691
08/23/2003 4:00 a 70.2 69.5 69.5 69.8 68.8 71 59.7 0.0 0.0 --- 0.00 29.691
08/23/2003 4:30 a 69.0 68.6 68.6 68.9 68.1 65 56.4 0.0 2.0 ESE 0.00 29.697
08/23/2003 5:00 a 68.0 68.4 68.4 68.8 67.7 67 57.0 0.0 0.0 --- 0.00 29.705
08/23/2003 5:30 a 66.8 66.8 66.8 67.7 65.4 76 59.0 0.0 0.0 --- 0.00 29.715
08/23/2003 6:00 a 65.1 65.1 65.1 65.4 64.9 76 57.4 0.0 0.0 --- 0.00 29.721
08/23/2003 6:30 a 64.3 64.3 64.3 64.9 63.7 79 57.7 0.0 0.0 --- 0.00 29.730
08/23/2003 7:00 a 63.5 63.5 63.5 63.7 63.3 81 57.6 0.0 0.0 --- 0.00 29.742
08/23/2003 7:30 a 64.2 64.2 64.2 65.7 63.7 76 56.5 0.0 0.0 --- 0.00 29.750
08/23/2003 8:00 a 67.1 67.1 67.1 68.2 65.7 71 57.4 0.0 2.0 ESE 0.00 29.757
08/23/2003 8:30 a 69.0 68.9 68.9 69.5 68.2 70 58.7 0.0 2.0 ESE 0.00 29.767
08/23/2003 9:00 a 70.0 70.4 70.4 72.6 69.5 65 58.1 0.0 1.0 ESE 0.00 29.774
08/23/2003 9:30 a 77.4 76.7 76.7 80.0 72.6 62 62.7 0.0 1.0 ESE 0.00 29.775
08/23/2003 10:00 a 75.2 75.0 75.0 75.4 74.8 61 60.7 0.0 2.0 ESE 0.00 29.780
08/23/2003 10:30 a 80.0 79.5 79.5 84.4 75.0 49 58.7 0.0 2.0 ESE 0.00 29.780
08/23/2003 11:00 a 80.4 79.1 79.1 83.7 76.7 57 62.6 0.0 3.0 ESE 0.00 29.778
08/23/2003 11:30 a 77.0 77.1 77.1 78.0 76.7 53 58.7 0.0 2.0 ESE 0.00 29.775
08/23/2003 12:00 p 79.6 78.8 78.8 79.2 78.0 53 60.2 0.0 3.0 ESE 0.00 29.769
08/23/2003 12:30 p 80.0 80.0 80.0 81.3 79.2 48 58.6 0.0 3.0 ESE 0.00 29.759
08/23/2003 1:00 p 89.6 89.7 89.7 95.8 81.3 32 55.9 0.0 3.0 SE 0.00 29.768
08/23/2003 1:30 p 92.8 94.3 94.3 96.7 90.2 27 55.2 0.0 6.0 ESE 0.00 29.761
08/23/2003 2:00 p 94.6 94.6 94.6 97.1 91.4 29 57.4 0.0 3.0 SSE 0.00 29.764
08/23/2003 2:30 p 92.8 91.8 91.8 93.9 87.2 34 59.5 0.0 2.0 SE 0.00 29.755
08/23/2003 3:00 p 84.6 84.6 84.6 87.1 84.0 38 56.2 0.0 3.0 SE 0.00 29.753
08/23/2003 3:30 p 82.8 83.3 83.3 84.0 82.8 39 55.8 0.0 2.0 ESE 0.00 29.740
08/23/2003 4:00 p 82.8 83.3 83.3 83.6 82.8 39 55.8 0.0 3.0 SSE 0.00 29.731
08/23/2003 4:30 p 83.0 83.0 83.0 83.3 82.8 40 56.2 0.0 1.0 ESE 0.00 29.731
08/23/2003 5:00 p 82.6 82.5 82.5 82.9 81.9 38 54.4 0.0 2.0 ESE 0.00 29.737
08/23/2003 5:30 p 79.6 81.0 81.0 81.9 80.1 33 49.2 0.0 3.0 SE 0.00 29.740
08/23/2003 6:00 p 78.2 79.4 79.4 80.1 78.7 36 50.1 0.0 4.0 ESE 0.00 29.738
08/23/2003 6:30 p 76.2 78.1 78.1 78.7 77.5 32 45.9 0.0 3.0 ESE 0.00 29.743
08/23/2003 7:00 p 75.0 76.6 76.6 77.5 75.9 33 45.4 0.0 3.0 E 0.00 29.756
08/23/2003 7:30 p 72.2 74.3 74.3 75.9 72.6 41 49.1 0.0 2.0 ESE 0.00 29.766
08/23/2003 8:00 p 69.9 71.7 71.7 72.7 70.9 39 45.4 0.0 2.0 ESE 0.00 29.774
08/23/2003 8:30 p 69.3 72.3 72.3 72.5 71.9 33 41.6 0.0 4.0 ESE 0.00 29.787
08/23/2003 9:00 p 69.3 72.3 72.3 72.5 71.7 33 41.6 0.0 7.0 SE 0.00 29.802
08/23/2003 9:30 p 67.6 71.3 71.3 71.7 70.5 33 40.7 0.0 3.0 SSE 0.00 29.811
08/23/2003 10:00 p 67.4 70.0 70.0 70.6 69.1 37 42.6 0.0 2.0 ESE 0.00 29.823
08/23/2003 10:30 p 66.6 68.7 68.7 69.2 68.1 38 42.1 0.0 1.0 ESE 0.00 29.837
08/23/2003 11:00 p 67.5 67.5 67.5 68.1 67.1 39 41.7 0.0 2.0 ESE 0.00 29.852
08/23/2003 11:30 p 66.6 66.6 66.6 67.1 65.8 43 43.4 0.0 2.0 SE 0.00 29.856
08/24/2003 12:00 a 65.5 65.5 65.5 65.8 65.0 49 45.9 0.0 1.0 SE 0.00 29.853
08/24/2003 12:30 a 62.5 62.5 62.5 64.9 60.7 58 47.5 0.0 0.0 --- 0.00 29.862
08/24/2003 1:00 a 59.3 59.3 59.3 60.7 58.2 66 48.0 0.0 0.0 --- 0.00 29.859
08/24/2003 1:30 a 57.5 57.5 57.5 58.2 56.8 70 47.8 0.0 0.0 --- 0.00 29.856
08/24/2003 2:00 a 56.5 56.5 56.5 56.7 56.1 72 47.6 0.0 0.0 --- 0.00 29.859
08/24/2003 2:30 a 56.3 56.3 56.3 56.9 56.0 70 46.7 0.0 0.0 --- 0.00 29.860
08/24/2003 3:00 a 56.7 56.7 56.7 56.9 56.2 75 48.9 0.0 0.0 --- 0.00 29.862
08/24/2003 3:30 a 55.6 55.6 55.6 56.2 55.1 76 48.2 0.0 0.0 --- 0.00 29.862
08/24/2003 4:00 a 55.1 55.1 55.1 55.5 55.0 75 47.3 0.0 0.0 --- 0.00 29.873
08/24/2003 4:30 a 55.5 55.5 55.5 55.6 55.5 77 48.4 0.0 0.0 --- 0.00 29.879
08/24/2003 5:00 a 55.0 55.0 55.0 55.6 54.4 79 48.6 0.0 0.0 --- 0.00 29.890
08/24/2003 5:30 a 53.8 53.8 53.8 54.3 53.5 82 48.4 0.0 0.0 --- 0.00 29.898
08/24/2003 6:00 a 53.4 53.4 53.4 53.6 53.1 83 48.4 0.0 1.0 --- 0.00 29.908
08/24/2003 6:30 a 53.5 53.5 53.5 53.6 53.1 82 48.1 0.0 0.0 --- 0.00 29.919
08/24/2003 7:00 a 53.4 53.4 53.4 53.6 53.4 82 48.1 0.0 0.0 --- 0.00 29.931
08/24/2003 7:30 a 54.4 54.4 54.4 55.7 53.5 80 48.4 0.0 0.0 --- 0.00 29.939
08/24/2003 8:00 a 57.0 57.0 57.0 58.6 55.7 72 48.1 0.0 0.0 --- 0.00 29.944
08/24/2003 8:30 a 59.4 59.4 59.4 60.4 58.6 61 46.0 0.0 2.0 SE 0.00 29.945
08/24/2003 9:00 a 61.8 61.8 61.8 64.9 60.4 52 44.0 0.0 4.0 ESE 0.00 29.947
08/24/2003 9:30 a 67.0 67.0 67.0 68.8 65.0 47 46.1 0.0 3.0 ESE 0.00 29.951
08/24/2003 10:00 a 66.4 66.4 66.4 66.9 65.9 45 44.4 0.0 4.0 ESE 0.00 29.943
08/24/2003 10:30 a 69.5 71.7 71.7 75.8 66.9 35 42.6 0.0 2.0 ESE 0.00 29.947
08/24/2003 11:00 a 66.6 69.3 69.3